the time You need

Gran Fondo del Conero CINELLI

Ancona, Ancona   Italy

domenica 10 marzo 2013

Percorsi

LUNGO - 135.0 Km

 

CORTO - 90.0 Km

 

FRANCESE - 135.0 Km

 

FRANCESE - 90.0 Km

Servizi

Official TimingPunti KS RankingGara ConvenzionataIscrizioni Attive

Chip

Personal Chip Daily Chip

Circuiti

Gran Combinata CiclismoMarche MarathonMaster Tricolore

CLASSIFICA

LUNGO - 135.0 Km

Pos Atleta Sesso Cat PosC Team Tempo Media RTime
356 BRAVI PASQUALE M M5 43 ROYAL TEAM ASD 05:56:20.70 22,73 05:53:26.10
355 MATTIOLI DANILO M M2 49 ASD BIKERS IN LIBERTA´ 05:56:20.20 22,73 05:52:53.10
354 MASSETTI SIMONE M M6 24 ASD BIKERS IN LIBERTA´ 05:32:55.90 24,33 05:29:30.20
353 SANTI PIERPAOLO M M5 42 ASD CRAL CARIFANO 05:32:51.00 24,34 05:31:24.24
352 CASINI MAURIZIO M M6 23 GS CICLI MATTEONI FRW 05:32:33.70 24,36 05:30:13.30
351 CANAPETI VINICIO M M6 22 ROYAL TEAM ASD 05:29:14.90 24,60 05:27:05.80
350 DONATI CINZIA M M6 21 ROYAL TEAM ASD 05:29:13.30 24,60 05:28:41.41
349 LARI ALBERTO M M6 20 COMPACT CYCLING TEAM 05:13:21.00 25,85 05:10:57.57
348 LEONARDI LETIZIA F W2 15 PEDALE CESENATE CICLI NERI 05:12:42.30 25,90 05:11:28.20
347 MENICORI MARCO M M6 19 NUOVA PEDALE CIVITANOVESE 05:11:39.40 25,99 05:10:43.43
346 CASELLI OTELLO M M7 11 ASD AC E PETRUIO 05:06:12.00 26,45 05:03:12.12
345 MORENA LAMBERTO M M5 41 ASD AC E PETRUIO 05:06:11.20 26,45 05:02:57.57
344 TRAVAGLIA MAURO M M4 73 ASD AC E PETRUIO 05:06:10.60 26,46 05:02:55.50
343 GATTI MAURILIO M M7 10 ASD AC E PETRUIO 05:06:10.55 26,46 05:03:05.05
342 ARINGOLO MAURIZIO M M5 40 ASD AC E PETRUIO 05:06:10.40 26,46 05:02:57.20
341 PIANELLI PAOLO M M7 9 ASD AC E PETRUIO 05:06:09.80 26,46 05:02:53.80
340 RONCHETTI NAZZARENO M M8 3 ASD AC E PETRUIO 05:06:09.10 26,46 05:03:02.02
339 PIERSIGILLI SETTIMIO M M7 8 ASD AC E PETRUIO 05:06:08.70 26,46 05:03:02.10
338 SPITONI GIUSEPPE M M8 2 ASD AC E PETRUIO 05:06:08.20 26,46 05:03:02.02
337 COSTANTINI PIERLUIGI M M4 72 CICLO CRAL L´AQUILA 05:05:55.30 26,48 05:02:13.13
336 FERRI PAOLO M M4 71 CICLO CRAL L´AQUILA 05:05:55.10 26,48 05:02:14.14
335 MEZZANOTTI MAURIZIO M M7 7 SCD FANESE 05:05:22.70 26,53 05:04:39.70
334 NURZIA MASSIMILIANO M M3 69 CICLO CRAL L´AQUILA 05:04:50.40 26,57 05:01:08.20
333 DI GREGORIO MARIO M M4 70 CICLO CRAL L´AQUILA 05:04:50.20 26,57 05:01:09.00
332 RAFFAELLI ROBERTO M M3 68 CICLO TEAM 2001 GABICCE MARE 05:03:19.70 26,70 04:59:42.20
331 SACCHINI LUCA M M3 67 CICLO TEAM 2001 GABICCE MARE 05:03:19.30 26,70 04:59:40.20
330 RIBICHINI GIULIANO M M5 39 ASD SPEEDY CESENA 05:00:11.40 26,98 04:58:39.40
329 SOLIMANDO NICOLA M M6 18 GS F.LLI COLA 04:59:31.20 27,04 04:57:56.56
328 LARI MARINO M M7 6 GS CICLI OLIVIERI 04:57:45.00 27,20 04:55:22.22
327 CAPRIOTTI SIMONE M M3 66 ASD CYCLE PROMOZIONE CICLISMO 04:57:44.60 27,21 04:54:15.15
326 BISACCHI DENIS M M3 65 LGL BIKE TEAM 04:57:10.20 27,26 04:53:49.49
325 RE ADAMO M M6 17 ASD BIKERS IN LIBERTA´ 04:56:45.90 27,30 04:53:23.20
324 DI PAOLO MASSIMILIANO M M3 64 ASD BIKERS IN LIBERTA´ 04:56:45.80 27,30 04:53:12.20
323 GIANGROSSI FABIO M M2 48 ASD BIKERS IN LIBERTA´ 04:56:45.75 27,30 04:53:13.35
322 GIANGROSSI GABRIELE M M1 42 ASD BIKERS IN LIBERTA´ 04:56:45.60 27,30 04:53:17.20
321 GASPERINI PAOLO M M6 16 GC FAUSTO COPPI CESENATICO 04:56:29.50 27,32 04:54:05.05
320 AMATUCCI FABRIZIO M M2 47 ASD MARY CONFEZIONI 04:56:15.40 27,34 04:54:12.12
319 CALVARESI PIERO M M2 46 ASD MARY CONFEZIONI 04:56:13.40 27,34 04:54:17.00
318 BIANCUCCI GIANLUCA M M4 69 ASD CROCEVERDE FERMO 04:55:49.70 27,38 04:52:36.00
317 GIACOMETTI FABIO M M2 45 ASD MISTERBICI FABRIANO 04:53:54.70 27,56 04:52:36.36
316 FERMANI MICHELE M M2 44 ASD ADRIANO DE ZAN 04:51:34.40 27,78 04:49:51.51
315 RUGGERI SARA F W1 6 NUOVA PEDALE CIVITANOVESE 04:51:33.80 27,78 04:50:36.60
314 POLIDORI STEFANO M M5 38 NUOVA PEDALE CIVITANOVESE 04:51:33.50 27,78 04:50:34.30
313 CINTIO MORENO M M4 68 ASD ADRIANO DE ZAN 04:51:31.80 27,79 04:49:15.20
312 TASSINARI EROS M M8 1 LGL BIKE TEAM 04:51:26.90 27,79 04:48:14.40
311 DIOMEDI SORRENTO M M6 15 NUOVA PEDALE CIVITANOVESE 04:51:24.60 27,80 04:50:19.19
310 NORI ROBERTO M M4 67 GS CICLI MATTEONI FRW 04:50:57.00 27,84 04:50:37.37
309 BRANCHESI STEFANO M M4 66 ASD GS CHIARAVALLE 04:50:37.60 27,87 04:50:26.26
308 TORINESE SAMUELE M M4 65 ASD TEAM IACCO BIKE 04:50:36.00 27,87 04:46:51.51
307 BETTELLI MAURIZIO M M5 37 ASD TEAM IACCO BIKE 04:50:35.30 27,87 04:46:51.00
306 PIAZZI MERI F W2 14 ASD GIANLUCA FAENZA TEAM 04:50:01.20 27,93 04:49:00.00
305 GUGLIELMI STENI M M4 64 SPINBIKE PESARO 04:49:36.30 27,97 04:45:52.52
304 GIOMBINI GIACOMO M M2 43 GS CICLI OLIVIERI 04:49:24.00 27,99 04:46:46.46
303 ZAGAGLIA MATTEO M ES 19 INDIVIDUALE 04:49:19.40 28,00 04:46:11.40
302 SETTEMBRINI ANDREA M M1 41 ASD WAYPOINT MTB FILOTTRANO 04:49:01.80 28,03 04:45:52.00
301 LUCCI ESTERINO M M5 36 ASD AVIS FALCONARA AMATORI CICLISMO 04:48:16.20 28,10 04:44:59.10
300 SOTTANA FEDERICA F W2 13 ASD AVIS FALCONARA AMATORI CICLISMO 04:48:09.10 28,11 04:44:50.50
299 COLANTONIO GIUSEPPE M M4 63 ASD ADRIANO DE ZAN 04:47:45.50 28,15 04:45:30.40
298 CORIMBI LUCIANO M M5 35 ASD CICLI FALGIANI 04:47:09.80 28,21 04:43:28.28
297 MARCELLI CRISTIANO M M3 63 ASD TRUENTUM BIKE 04:46:37.10 28,26 04:45:37.37
296 CARBONI LUIGI M M5 34 SCD FANESE 04:45:50.30 28,34 04:44:10.20
295 CAPPELLINI ARNALDO M M5 33 ROYAL TEAM ASD 04:45:49.70 28,34 04:45:21.50
294 FRATINI CELESTE M M6 14 ASD MARY CONFEZIONI 04:45:47.70 28,34 04:43:45.20
293 TURCI MAURIZIO M M4 62 SPORT TIME SSD ARL 04:44:39.50 28,46 04:42:01.10
292 RICCI RAFFAELE M M4 61 ASD TEAM AQUILOTTI CERVIA 04:44:39.10 28,46 04:44:12.12
291 MARZIONI MANUEL M M1 40 GC MATELICA 04:44:02.50 28,52 04:41:25.25
290 BALESTRI MASSIMO M M5 32 ASD ARS ET ROBUR 04:43:08.60 28,61 04:41:15.20
289 LAGI MAURO M M4 60 ASD VC SANTA MARIA DEGLI ANGELI 04:40:07.50 28,92 04:38:36.36
288 SEVERI CARMINE M M6 13 ASD RE ARTU´ 04:39:13.60 29,01 04:36:43.20
287 SPINELLI SANTO M M5 31 ASD RE ARTU´ 04:39:13.40 29,01 04:36:43.40
286 BUSSI MAURIZIO M M6 12 ASD RE ARTU´ 04:39:12.90 29,01 04:36:44.60
285 CAMPORESI EROS M M5 30 ASD RE ARTU´ 04:39:12.80 29,01 04:36:40.10
284 LIZZADRO FELICE M M1 39 RUOTE LIBERE ASD 04:39:11.10 29,01 04:36:26.26
283 DE GREGORIO PIER ANGELO M M5 29 GS CICLI MATTEONI FRW 04:38:32.60 29,08 04:38:04.30
282 PAOLONI ROBERTO M M7 5 GC PEDALE FERMANO AMATORI ASD 04:37:19.20 29,21 04:36:21.00
281 DOMENICONI MIRKO M M1 38 ASD CASE CASTAGNOLI 04:37:00.10 29,24 04:33:14.14
280 GIORGINI ROBERTO M M3 62 ASD CASE CASTAGNOLI 04:36:59.90 29,24 04:33:15.20
279 PRIMAVERA ANGELO M M5 28 ARDITA PIAGGE 04:36:58.20 29,25 04:34:53.10
278 DONATI FEDERICO M M4 59 VITRIFRIGO VELO CLUB MONTECCHIO 04:36:56.00 29,25 04:36:31.31
277 AMADORI VINICIO M M5 27 ARTUSIANA BIKE 04:36:55.20 29,25 04:34:48.48
276 CONTINI LUIGI M M6 11 ASD GS CICLOMANIA 2007 04:36:54.80 29,25 04:33:57.80
275 MONTAGUTI TIZIANO M M6 10 ASD GS CICLOMANIA 2007 04:36:54.70 29,25 04:33:16.70
274 BURATTI ROBERTA F W2 12 ASD SPEEDY CESENA 04:36:51.10 29,26 04:36:23.23
273 CASOLI DEBORAH F W2 11 VITRIFRIGO VELO CLUB MONTECCHIO 04:36:50.80 29,26 04:36:24.50
272 MOSCHINI STEFANO M M4 58 ARDITA PIAGGE 04:36:44.70 29,27 04:34:41.20
271 ROCCHI PAOLO M M4 57 ASD CASE CASTAGNOLI 04:36:43.50 29,27 04:32:56.56
270 BALDINI STEFANO M M6 9 SCD FANESE 04:36:29.80 29,30 04:33:33.70
269 CUSSOTTO ROBERTO M M2 42 RPM CICLI ASTI 04:32:15.40 29,75 04:29:41.10
268 VALENTINI GIORGIO M M6 8 FREE BIKERS SENIGALLIA ASD 04:32:13.00 29,76 04:29:14.14
267 BALDORILLI ROBERTO M M3 61 ASD AVIS FALCONARA AMATORI CICLISMO 04:31:10.30 29,87 04:29:37.37
266 GIOVAGNOLI GIANPAOLO M M3 60 VELO CLUB CICLI CINGOLANI ASD 04:30:58.20 29,89 04:28:35.35
265 MATTEUCCI FRANCESCO M M4 56 NUOVA PEDALE CIVITANOVESE 04:30:52.10 29,90 04:27:23.23
264 LUCIANI STEFANO M M3 59 NUOVA PEDALE CIVITANOVESE 04:30:45.60 29,92 04:29:07.60
263 MANCINI FRANCESCO M M2 41 ASD SPORT & TRAVEL 04:29:37.60 30,04 04:27:11.11
262 PACELLA LORENZO M M3 58 EASY BIKE CASTELNUOVO 04:29:13.90 30,09 04:27:03.20
261 CAPRIOTTI NICOLINO M M5 26 ASD TRUENTUM BIKE 04:28:04.30 30,22 04:26:04.10
260 UGOLINI TOMMASO M NC 1 ASD CICLO DUCALE 04:28:03.90 30,22 04:24:24.40
259 TOSTI ACHILLE M M5 25 ASD TRUENTUM BIKE 04:28:03.40 30,22 04:27:01.20
258 MARCELLO FEDERICO M M2 40 ASD SOLO NOI 04:27:19.00 30,30 04:24:04.04
257 LORENZI LUCA M M1 37 ASD OLIVIERO 04:26:50.60 30,36 04:24:40.10
256 VANNUCCI FRANCO M M4 55 GS CICLI MATTEONI FRW 04:26:40.00 30,38 04:26:05.05
255 MUCCIOLI MARCO M M6 7 SCD FANESE 04:26:38.60 30,38 04:24:58.10
254 FULGENZI MASSIMILIANO M M3 57 GS CICLI MATTEONI FRW 04:26:09.10 30,43 04:25:40.40
253 DELAI SEBASTIANO M M5 24 ASD RE ARTU´ 04:26:05.50 30,44 04:23:33.00
252 MONDAINI MARIA TERESA F W2 10 GS CICLI MATTEONI FRW 04:26:04.50 30,44 04:25:43.43
251 COTTOMESI GIACOMO M ES 18 ROYAL TEAM ASD 04:26:04.30 30,44 04:25:40.40
250 CAPOZZOLO FEDERICO M M3 56 ROYAL TEAM ASD 04:26:04.25 30,44 04:25:34.34
249 GASPARI TIZIANA F W2 9 ROYAL TEAM ASD 04:26:03.80 30,45 04:25:36.20
248 CAPPELLETTI FABIO M M1 36 INDIVIDUALE 04:26:03.50 30,45 04:23:17.40
247 BARBINI MARCO M M2 39 ASD NEWTEAM ESSEBI 04:26:00.70 30,45 04:24:23.20
246 FERRETTI ANDREA M M4 54 TEAM BICI SPORT FABRIANO 04:25:13.80 30,54 04:21:38.10
245 TROIANI MAURIZIO M M4 53 ASD TRUENTUM BIKE 04:24:34.30 30,62 04:23:30.30
244 MORIGI MARCO M M3 55 ARTUSIANA BIKE 04:24:33.30 30,62 04:22:20.20
243 MARTELLINI ANACLETO M M4 52 GC PEDALE FERMANO AMATORI ASD 04:24:32.90 30,62 04:23:38.80
242 DISCENZA FRANCO M M7 4 VELO CLUB CICLI CINGOLANI ASD 04:23:55.10 30,69 04:22:23.23
241 ZANI ALESSANDRO M ES 17 GOBBI-LGL-SOMEC 04:23:28.00 30,74 04:22:37.37
240 RAVAGLIA LAURA F W1 5 GOBBI-LGL-SOMEC 04:23:27.50 30,75 04:22:42.42
239 LUDOVISI PAOLO M M4 51 ASD CICLISTICA CAVESE 04:23:12.90 30,78 04:21:14.10
238 BALDUCCI MARZIO M M7 3 ROYAL TEAM ASD 04:23:12.85 30,78 04:21:04.25
237 GIOACCHINI GIACOMO M M4 50 GS AVIS BIKE CINGOLI 04:21:50.50 30,94 04:20:32.10
236 FARINA ENNIO M M4 49 ASD SOLO NOI 04:21:47.70 30,94 04:18:22.10
235 ODDI OLIVER M M4 48 ASD MARY CONFEZIONI 04:20:21.00 31,11 04:18:55.55
234 MANCINELLI GIANLUCA M M3 54 ASD GIULIODORI RENZO ZEPPA BIKE 04:20:14.10 31,13 04:17:09.09
233 COLA MASSIMILIANO M ES 16 ASD POLISP. BELVEDERE FOLIGNANO 04:19:52.30 31,17 04:17:51.51
232 MICOZZI MARCO M M2 38 AVIS FRECCE AZZURRE 04:19:50.80 31,17 04:18:14.60
231 PALLONI SANDRO M M6 6 ASD FERMO BIKE 04:19:49.70 31,18 04:16:38.30
230 FERRETTI PIERO ANDREA M M3 53 ASD GIULIODORI RENZO ZEPPA BIKE 04:19:45.00 31,18 04:16:42.42
229 TARRONI GIAMPAOLO M M4 47 GS BIKELUGO 04:19:43.40 31,19 04:17:42.42
228 EUSEBI STEFANO M M3 52 CICLO TEAM 2001 GABICCE MARE 04:19:41.60 31,19 04:18:46.46
227 GUERRI TOMAS M M2 37 ASD NEWTEAM ESSEBI 04:19:41.40 31,19 04:18:42.42
226 VISMARA ROBERTO M M5 23 PONTE CYCLING TEAM 04:19:41.20 31,19 04:18:49.49
225 BELLAGANBA FAUSTO M M6 5 ASD GIULIODORI RENZO ZEPPA BIKE 04:19:41.00 31,19 04:18:08.08
224 CASINI ANTONIO M M5 22 UC CREMASCA 04:19:40.20 31,19 04:17:22.10
223 CURZI MAURO M M1 35 ASD NEWTEAM ESSEBI 04:19:39.80 31,20 04:18:23.50
222 CARASSAI LUCA M M1 34 ASD BIKERS IN LIBERTA´ 04:19:38.80 31,20 04:18:26.50
221 SABALICH ALESSIO GIOVANNI M M3 51 GS CYCLONE ASD 04:19:37.50 31,20 04:16:44.44
220 ASTOLFI PAOLO M M3 50 GS CICLI MATTEONI FRW 04:19:37.20 31,20 04:18:53.53
219 PISELLI NADIA F W2 8 GS CICLI MATTEONI FRW 04:19:37.15 31,20 04:19:03.05
218 RE LUCA M M1 33 ASD BIKERS IN LIBERTA´ 04:19:36.30 31,20 04:19:36.30
217 SCHIAVONI ORIETTA F W2 7 ASD GIULIODORI RENZO ZEPPA BIKE 04:19:35.30 31,20 04:18:59.59
216 LEEMAN KERSTI F W2 6 TEAM FAUSTO COPPI FERMIGNANO 04:19:33.40 31,21 04:19:12.00
215 COLA BEATRICE F W1 4 CICLO TEAM 2001 GABICCE MARE 04:19:29.40 31,22 04:18:32.00
214 CROCI ANDREA M M2 36 ASD BIKERS IN LIBERTA´ 04:19:28.80 31,22 04:16:45.20
213 PARASCANDOLO PIETRO M M3 49 ASD SOLO NOI 04:19:26.90 31,22 04:16:00.20
212 BELLAGAMBA PAOLO M M3 48 ASD RUOTA LIBERA MOIE 04:19:17.60 31,24 04:18:12.10
211 CELATO SIMONE M M2 35 SS FRECCE ROSSE RIMINI 04:19:08.80 31,26 04:15:50.00
210 VENERI STEFANO M M1 32 ASD BIKETEAM AIRONI SERRA DE CONTI 04:18:52.10 31,29 04:15:22.22
209 CARDINALI MASSIMILIANO M M3 47 ASD GS CHIARAVALLE 04:18:29.40 31,34 04:18:22.22
208 VIGO MANUELE M M4 46 ASD DAL CICLISTA CREMA 04:18:15.60 31,36 04:15:58.30
207 BASSI CARLO M M7 2 ASD RE ARTU´ 04:16:50.60 31,54 04:14:23.00
206 TRIOZZI STEFANO M M2 34 ASD SOLO NOI 04:16:48.70 31,54 04:14:00.70
205 FABBRI ORIANO M M6 4 ASD RE ARTU´ 04:16:13.70 31,61 04:13:47.70
204 BALDINI RICCARDO M M4 45 SCD FANESE 04:16:13.50 31,61 04:13:22.30
203 CODE CHIP WT1523 - M M4 44 ASD RE ARTU´ 04:16:12.70 31,62 04:13:42.10
202 MODESTO MASSIMILIANO M M3 46 GS DACCORDI ASD 04:15:56.30 31,65 04:15:11.11
201 ORCIANI ANDREA M M4 43 ASD GC MELANIA 04:15:44.90 31,67 04:12:41.00
200 CIANI PAOLO M M3 45 ARTUSIANA BIKE 04:15:13.50 31,74 04:13:10.10
199 BATTISTINI PATRICK M M3 44 ASD TEAM AQUILOTTI CERVIA 04:15:13.40 31,74 04:12:34.34
198 RINALDI ALESSANDRO M M2 33 ASD GS CICLOMANIA 2007 04:15:10.30 31,74 04:13:11.00
197 GOBBI ROBERTO M M2 32 ASD TEAM AQUILOTTI CERVIA 04:15:07.90 31,75 04:12:32.30
196 PESARESI ALBERTO M M3 43 ASD CICLISTI CIVITANOVESI 04:15:03.80 31,76 04:11:33.10
195 RICCIONI MASSIMO M M3 42 GC MATELICA 04:15:03.60 31,76 04:12:25.00
194 COGNINI GIANLUCA M M4 42 FREE BIKERS SENIGALLIA ASD 04:15:03.40 31,76 04:12:05.20
193 SASSI MARINO M M5 21 ARTUSIANA BIKE 04:15:03.10 31,76 04:12:58.58
192 DONNINI PAOLO M M4 41 ASD CYCLING TEAM ALTOTEVERE 04:15:02.10 31,76 04:12:13.13
191 DRUDI MOSE´ M M2 31 LGL BIKE TEAM 04:15:01.80 31,76 04:11:42.70
190 MANZATO BARBARA ANITA F W1 3 TEAM FAUSTO COPPI FERMIGNANO 04:15:01.75 31,76 04:14:33.65
189 DE SANTIS LUCIANO M M2 30 SCD FANESE 04:15:01.70 31,76 04:13:24.24
188 CAROPPI MICHELE M M1 31 ASD BICICLOPE APRICENA 04:15:01.40 31,76 04:14:04.04
187 GHILARDI GIAN BATTISTA M M5 20 VALCAVALLINA LOVATO ELECTRIC AXEVO 04:15:00.70 31,76 04:14:48.48
186 CARDINALI STEFANO M M5 19 ASD NEWTEAM ESSEBI 04:13:13.40 31,99 04:12:05.30
185 BIZZARRI STEFANO M ES 15 TEAM BICI SPORT FABRIANO 04:12:51.70 32,03 04:11:52.60
184 FERRARI DAVIDE M M3 41 PEDALE REGGIO 04:12:48.60 32,04 04:09:54.40
183 GENTILI DIEGO M M2 29 ASD MISTERBICI FABRIANO 04:08:54.50 32,54 04:07:53.50
182 PACINI DIMITRI M M3 40 GS CICLI OLIVIERI 04:08:49.00 32,55 04:06:13.13
181 BRAVETTI MAURIZIO M M4 40 GS CICLI MATTEONI FRW 04:06:44.10 32,83 04:06:19.19
180 BUGLI MANUELA F W1 2 GS CICLI MATTEONI FRW 04:06:43.30 32,83 04:06:19.10
179 CESARINI DAVIDE M M3 39 GS CICLI MATTEONI FRW 04:06:43.25 32,83 04:06:20.05
178 CECCACCI EMILIANO M M1 30 ASD SPORT & TRAVEL 04:06:25.40 32,87 04:03:58.10
177 BILANCIA MARCO M M2 28 SCD FANESE 04:06:21.70 32,88 04:04:38.38
176 FILIPPONI NICOLINO M M5 18 ASD TRUENTUM BIKE 04:06:21.30 32,88 04:04:20.20
175 PIERANGELINI SIMONE M M2 27 N. LIMITS ASD - STUDIO MODA 04:06:15.00 32,89 04:05:27.27
174 ALESIANI GIULIANO M M5 17 NUOVA PEDALE CIVITANOVESE 04:06:10.00 32,90 04:04:28.28
173 GABRIELLI GIUSEPPE M M1 29 SCA OFFIDA 04:05:37.20 32,98 04:04:02.02
172 RICCIONI GIOVANNI M M5 16 TEAM FAUSTO COPPI FERMIGNANO 04:05:35.40 32,98 04:05:19.20
171 PAOLUCCI ALFREDO M M5 15 ASD BICI CLUB MONTELABBATE VALERIANI E ROSSINI 04:05:26.70 33,00 04:05:09.09
170 PIERANGELINI ANTONIO M M7 1 N. LIMITS ASD - STUDIO MODA 04:05:07.30 33,05 04:04:45.45
169 ROCCHI STEFANO M M5 14 GC FAUSTO COPPI CESENATICO 04:05:05.60 33,05 04:03:10.50
168 MARINUCCI ARMANDO M M4 39 SCA OFFIDA 04:05:05.50 33,05 04:02:42.00
167 CARDELLINI DAVIDE M M2 26 ROYAL TEAM ASD 04:05:05.20 33,05 04:04:36.36
166 CRISTOFANELLI GIACOMO M M2 25 ROYAL TEAM ASD 04:05:05.15 33,05 04:04:33.33
165 SCOCCIA PRIMO M M4 38 ASD ATB CROCE VERDE FERMO 04:05:04.80 33,05 04:03:34.70
164 CORINA ALESSANDRA F W2 5 ROYAL TEAM ASD 04:05:04.20 33,05 04:04:38.38
163 SARAGONI MAURIZIO M M5 13 ARTUSIANA BIKE 04:05:03.70 33,05 04:02:50.60
162 GNANI GUALTIERO M M4 37 ARTUSIANA BIKE 04:05:03.60 33,05 04:02:55.55
161 EVANGELISTI EMILIANO M M2 24 ROYAL TEAM ASD 04:05:03.10 33,05 04:04:36.36
160 MALATESTA MIRCO M M2 23 EMMA TOUR SPORT ASD 04:05:02.80 33,06 04:02:26.26
159 GIRARDI GIANNI M M3 38 EMMA TOUR SPORT ASD 04:05:02.70 33,06 04:02:26.26
158 CASADEI CRISTINA F W2 4 ASD TEAM AQUILOTTI CERVIA 04:05:02.50 33,06 04:04:35.50
157 FORESI FRANCESCO M M4 36 GS AVIS PEDALE SANGIUSTESE 04:05:02.20 33,06 04:03:05.05
156 COSTANTINI FABRIZIO M M4 35 VELO CLUB CICLI CINGOLANI ASD 04:05:02.00 33,06 04:02:13.13
155 MENGHINI GIANPIETRO M M4 34 TEAM BICI SPORT FABRIANO 04:05:01.95 33,06 04:03:03.55
154 APRUZZESE FABRIZIO M M4 33 ASD TRUENTUM BIKE 04:05:01.40 33,06 04:04:08.00
153 CORVATTA MARCO M M1 28 EASY BIKE CASTELNUOVO 04:05:00.90 33,06 04:04:38.10
152 MICUCCI ANDREA M M3 37 NUOVA PEDALE CIVITANOVESE 04:04:58.50 33,07 04:03:47.47
151 BASTIANI ENRICO M M4 32 ASD ATB CROCE VERDE FERMO 04:04:20.90 33,15 04:02:48.00
150 BRAGAGNA GIANLUCA M M3 36 ASD H30 RACE TEAM 04:04:18.10 33,16 04:03:09.09
149 MARRAS GIANLUCA M ES 14 TEAM FAUSTO COPPI FERMIGNANO 04:04:11.40 33,17 04:02:54.54
148 CALVIGIONI ROBERTO M M3 35 ASD VIRGINIA BIKE 04:03:32.20 33,26 04:03:01.01
147 CHIAVARO VINCENZO M M1 27 GC PEDALE FERMANO AMATORI ASD 04:03:31.40 33,26 04:00:15.20
146 CACCIAMANI SIMONE M M3 34 ASD BORN TO RUN 04:02:27.50 33,41 03:59:56.56
145 CORINALDESI GIORGIO M M4 31 ASD NEWTEAM ESSEBI 04:02:27.00 33,41 04:01:13.13
144 ABBONDANZA DOMENICO M M3 33 ASD MKG CYCLING TEAM 04:01:24.30 33,55 04:00:38.30
143 SPANDRE LUCA M ES 13 ASD GS CICLOMANIA 2007 04:00:37.20 33,66 03:58:35.35
142 SCHIAROLI DAVIDE M M5 12 ASD SMIRRA BIKE 04:00:28.90 33,68 03:57:47.50
141 VALLESE MIRCO M M5 11 ASD RAGAMON CYCLYNG TEAM 04:00:18.10 33,71 03:59:35.35
140 CURZI GUIDO M M4 30 ASD TRUENTUM BIKE 04:00:03.40 33,74 03:59:07.07
139 PICCIONI ANTONIO M M6 3 SCA OFFIDA 04:00:03.30 33,74 03:57:50.50
138 BOCCOLINI LUCA M M4 29 ASD NEWTEAM ESSEBI 04:00:02.80 33,75 03:58:56.10
137 MICHETTI BERNARDINO M M4 28 ASD TRUENTUM BIKE 04:00:02.30 33,75 03:59:07.00
136 SAVORETTI MAURIZIO M M5 10 NUOVA PEDALE CIVITANOVESE 03:59:37.80 33,80 03:58:03.50
135 MORGANTI RAFFAELE M M5 9 SCA OFFIDA 03:59:34.80 33,81 03:58:15.30
134 MAZZAFERRI STEFANO M M6 2 VELO CLUB CICLI CINGOLANI ASD 03:59:34.10 33,81 03:59:26.26
133 MOZZONI SERGIO M M2 22 SCA OFFIDA 03:59:32.60 33,82 03:58:02.40
132 CASTAGNARI CORRADO M M4 27 EASY BIKE CASTELNUOVO 03:59:32.40 33,82 03:59:10.40
131 PRATI MARIA CRISTINA F W2 3 GS CICLI MATTEONI FRW 03:59:32.10 33,82 03:59:09.09
130 BERTOZZI DANIELE M M5 8 GS CICLI MATTEONI FRW 03:59:32.05 33,82 03:59:01.01
129 GAMBADORI STEFANO M M3 32 ASD NEWTEAM ESSEBI 03:59:02.30 33,89 03:58:40.40
128 MAINERI GIANDOMENICO M M5 7 GS SPORTISSIMO TOP LEVEL 03:58:52.80 33,91 03:57:05.20
127 CENTORAME GABRIELE M M1 26 RUOTE LIBERE ASD 03:58:51.90 33,91 03:56:08.80
126 CAMPORESI CRISTIANO M M2 21 ASD OLIVIERO 03:58:49.00 33,92 03:56:41.41
125 DI DONATO PINO M M4 26 GS SAN NICOLO´ BIKE 03:58:48.40 33,92 03:56:28.10
124 GIACOMETTI GABRIELE M M3 31 ASD GIANLUCA FAENZA TEAM 03:58:46.20 33,92 03:56:25.10
123 BRUSSA CARLO M M3 30 ASD SOLO NOI 03:58:43.80 33,93 03:55:32.70
122 PALAZZI OMAR M M2 20 ASD GS CHIARAVALLE 03:58:43.20 33,93 03:58:34.34
121 CAVALLINI RANIERO M M3 29 RAVEN TEAM 03:58:41.70 33,94 03:57:50.50
120 MENGASCINI ANDREA M M3 28 NUOVA PEDALE CIVITANOVESE 03:58:41.50 33,94 03:56:56.10
119 BERARDI LUIGI M M4 25 TEAM PASSION FAENTINA 03:58:41.40 33,94 03:56:30.40
118 SEBASTIANI FABRIZIO M M3 27 PONTE CYCLING TEAM 03:58:41.20 33,94 03:57:48.48
117 LINI GABRIELE M M4 24 OLIMPIA BIKE 03:58:40.90 33,94 03:56:25.30
116 BRAVI LORENZO M M1 25 ASD MISTERBICI FABRIANO 03:58:40.60 33,94 03:56:35.35
115 VALENTINI LUCA M M1 24 ASD CYCLING TEAM ALTOTEVERE 03:58:40.55 33,94 03:55:04.05
114 MAZZOTTI ERIK M M1 23 ASD MEDINOX 03:58:40.50 33,94 03:56:44.20
113 CERIONI JURI M M1 22 ASD NEWTEAM ESSEBI 03:58:40.40 33,94 03:55:48.48
112 PAZZAGLINI ALESSANDRO M M1 21 GS VALCONCA OTTICA BIONDI 03:58:40.00 33,94 03:56:28.28
111 GIARDINI MAURIZIO M M5 6 TEAM MG.K VIS-GOBBI-LGL-DEDACCIAI 03:58:39.90 33,94 03:58:04.30
110 VIGO ALBERTO M M4 23 ASD LA FENICE 03:58:39.60 33,94 03:56:23.10
109 BELLISSIMO CRISTIANO M M2 19 NUOVA PEDALE CIVITANOVESE 03:58:39.40 33,94 03:57:35.35
108 BERNARDI GUERRINO M M4 22 HOBBY BIKE 03:58:39.10 33,94 03:55:32.32
107 MARCANTONI GUIDO M M4 21 N. LIMITS ASD - STUDIO MODA 03:58:37.60 33,95 03:56:46.46
106 FORESTO DAVIDE M M5 5 ASD MASTINI AVIS CAGLI 03:58:37.20 33,95 03:56:07.07
105 SANTOMO MIRCO M M2 18 VIBRATA BIKE 2005 03:58:36.90 33,95 03:57:08.00
104 CIANFLONE MAURIZIO M M4 20 GS SPORTISSIMO TOP LEVEL 03:58:33.10 33,96 03:57:59.59
103 FALCIONI MASSIMO M M4 19 ASD MONTE CONERO BIKE 03:58:17.90 33,99 03:55:38.80
102 ANGELETTI DAVIDE M M3 26 FALCO RACING 03:58:17.80 33,99 03:55:14.30
101 CLEMENTONI GABRIELE M M3 25 ASD GC MELANIA 03:57:47.10 34,06 03:56:36.36
100 MICHELINI FABRIZIO M M3 24 ALESSI POL APPIGNANO DEL TRONTO 03:57:32.60 34,10 03:55:44.44
99 MARTINELLO MANUEL M M2 17 LEGEND-MICHE-GOBBI 03:57:32.10 34,10 03:56:50.10
98 FRISONI GUIDO M M3 23 COBRAN TEAM RSM 03:57:31.40 34,10 03:56:08.08
97 BEDETTI DANIELE M M1 20 COBRAN TEAM RSM 03:57:30.80 34,11 03:56:45.80
96 MONALDINI ROBERTA F W1 1 COBRAN TEAM RSM 03:57:30.60 34,11 03:56:47.47
95 DI DOMENICO GIANCARLO M M2 16 ASD MKG CYCLING TEAM 03:55:55.30 34,33 03:55:38.38
94 LUCONI ROBERTO M M4 18 ASD CICLI COPPARO 03:55:46.80 34,36 03:55:43.00
93 DELLE MONACHE GIANCARLO M M6 1 CICLI MONTANINI ALICE CERAMICA FRW 03:55:45.80 34,36 03:55:22.00
92 CALANDRINI SIMONE M ES 12 GC PEDALE FERMANO AMATORI ASD 03:55:45.50 34,36 03:55:02.10
91 MENCARONI LUCIANO M M3 22 ASD GC MELANIA 03:54:32.40 34,54 03:53:54.54
90 PAVONE SIGLIO M M4 17 ASD MKG CYCLING TEAM 03:54:32.00 34,54 03:53:09.09
89 COLLELUORI MARCO M M4 16 ASD MKG CYCLING TEAM 03:54:31.10 34,54 03:53:46.46
88 PRATI MARCO M M3 21 ASD PEDALE FERMANO 03:54:30.60 34,54 03:53:51.50
87 BERNARDINI FRANCESCO M M4 15 ASD OLIVIERO 03:54:30.50 34,54 03:54:05.50
86 BERNACCHIA DIEGO M M1 19 AVIS FRECCE AZZURRE 03:54:30.40 34,54 03:54:16.30
85 ZANGHERI LORENA F W2 2 ASD GC MELANIA 03:54:30.30 34,54 03:54:23.23
84 CASADEI FABIANO M M1 18 ASD H30 RACE TEAM 03:54:09.70 34,59 03:53:10.10
83 DONATI LUCA M M2 15 TEAM FAUSTO COPPI FERMIGNANO 03:54:07.80 34,60 03:52:52.52
82 SIMONETTI DANIELE M M2 14 ASD FREE PHOTOBIKE TEAM 03:54:06.30 34,60 03:52:34.00
81 GALLI FEDERICO M M2 13 TEAM FAUSTO COPPI FERMIGNANO 03:54:05.40 34,60 03:52:59.10
80 SPITONI FRANCESCO M M1 17 ASD TRUENTUM BIKE 03:53:58.60 34,62 03:52:17.30
79 RAIMONDI GIOVANNI FILIPPO M M3 20 RAVEN TEAM 03:53:45.70 34,65 03:51:52.10
78 RIGHI MICHELE M M4 14 ASD OLIVIERO 03:53:44.20 34,65 03:51:33.33
77 BOCCALI ANGELO M M3 19 ASD GS MONDOBICI 03:53:26.00 34,70 03:50:58.58
76 ROSATI GIUSEPPE M M4 13 SCA OFFIDA 03:53:25.95 34,70 03:52:32.85
75 MAZZAVILLANI PAOLO M M3 18 ASD TEAM ROSSETTI 03:53:24.50 34,70 03:50:51.51
74 GIANGRANDE MARIO M M4 12 ASD MKG CYCLING TEAM 03:53:24.00 34,70 03:53:08.08
73 CIUFFINI CHIARA F EW 1 ASD MKG CYCLING TEAM 03:53:23.50 34,71 03:53:06.06
72 CERONI CARLO M M5 4 ASD TRUENTUM BIKE 03:53:23.45 34,71 03:52:28.28
71 MANGINELLA CARMINE M M2 12 TEAM MG.K VIS-GOBBI-LGL-DEDACCIAI 03:53:23.30 34,71 03:52:38.10
70 SCORTEGAGNA FABIO M M3 17 ASD ARS ET ROBUR 03:53:22.60 34,71 03:51:32.32
69 ROSSI RICCARDO M M4 11 ASD BIKERS IN LIBERTA´ 03:53:22.10 34,71 03:52:09.09
68 MARCONI SANDRA F W2 1 ASD MARY CONFEZIONI CYCLING TEAM 03:53:21.90 34,71 03:53:08.70
67 TROMBETTA DIEGO M M2 11 GS AVIS BIKE CINGOLI 03:53:21.85 34,71 03:52:10.65
66 SUCCI FEDERICO M ES 11 INDIVIDUALE 03:53:21.60 34,71 03:53:17.20
65 FEDUZI EMANUELE M M1 16 ASD GS MONDOBICI 03:53:21.50 34,71 03:52:14.40
64 SWUEC GIULIANO M M2 10 ASD DELTA IMMOBILIARE ARCHEDYL 03:53:21.20 34,71 03:50:37.00
63 PIERINI ANDREA M M5 3 VELO CLUB GUBBIO 03:53:20.00 34,71 03:51:04.04
62 CIAFFONE MANUEL M M1 15 TEAM FORTUNATO AVEZZANO 03:53:19.40 34,72 03:51:22.22
61 SPOLETINI MASSIMO M M4 10 ASD GIULIODORI RENZO ZEPPA BIKE 03:53:17.50 34,72 03:53:17.50
60 BARBETTA STEFANO M M4 9 TEAM MG.K VIS-GOBBI-LGL-DEDACCIAI 03:51:56.70 34,92 03:51:56.70
59 PELLICCETTI LUCA M M4 8 GC PEDALE FERMANO AMATORI ASD 03:51:48.80 34,94 03:50:59.70
58 SPALLETTI DANIELE M M3 16 ASD VALENTI TEAM 03:51:47.90 34,95 03:51:30.70
57 BELLUCCI DANIELE M M4 7 TEAM FAUSTO COPPI FERMIGNANO 03:51:46.40 34,95 03:50:41.41
56 NUCCIARELLI MAURO M M4 6 ASD GC MELANIA 03:51:46.10 34,95 03:50:40.40
55 MAZZARINI LUCIO M M2 9 ASD NEWTEAM ESSEBI 03:51:43.80 34,96 03:51:34.70
54 VIANELLI FILIPPO M M1 14 ASD H30 RACE TEAM 03:51:26.30 35,00 03:50:16.30
53 IARLORI MARCO M ES 10 JOLLY ASD 03:49:23.10 35,31 03:46:57.57
52 MARSILII ALESSANDRO M M2 8 N. LIMITS ASD - STUDIO MODA 03:49:16.70 35,33 03:48:28.60
51 URBINATI LUCA M ES 9 ASD GS MONDOBICI 03:48:58.00 35,38 03:46:29.29
50 SILVA STEFANO M M2 7 TEAM MG.K VIS-GOBBI-LGL-DEDACCIAI 03:48:56.00 35,38 03:48:12.12
49 COLOCCI MICHELE M ES 8 ASD NEW WILD ROSE 03:47:33.70 35,60 03:47:18.40
48 D´ANGELO STEFANO M M4 5 SCA OFFIDA 03:47:21.70 35,63 03:46:45.50
47 SARTI ANDREA M M1 13 GS CICLI MATTEONI FRW 03:47:14.40 35,65 03:47:00.00
46 BRUNELLI ANDREA M M1 12 ARTUSIANA BIKE 03:46:54.80 35,70 03:45:00.30
45 PIERDOMINICI MANUEL M M3 15 NUOVA PEDALE CIVITANOVESE 03:46:43.50 35,73 03:45:40.40
44 AVENALI MARCO M M5 2 ASD GIULIODORI RENZO ZEPPA BIKE 03:46:36.50 35,75 03:46:17.17
43 SANCHINI CLAUDIO M M1 11 TEAM FAUSTO COPPI FERMIGNANO 03:46:35.30 35,75 03:45:21.20
42 PAGLIARANI CLAUDIO M ES 7 TEAM MG.K VIS-GOBBI-LGL-DEDACCIAI 03:46:35.00 35,75 03:45:55.55
41 GAMBELLI MASSIMO M M3 14 BICI ADVENTURE TEAM ASD 03:46:34.80 35,75 03:46:26.50
40 CETERA IVAN M M2 6 ASD MARY CONFEZIONI CYCLING TEAM 03:46:34.50 35,75 03:46:04.00
39 COMPAGNUCCI MARIO M M3 13 GS AVIS BIKE CINGOLI 03:46:34.20 35,75 03:45:18.00
38 GASPERONI MARCO M M3 12 TEAM MG.K VIS-GOBBI-LGL-DEDACCIAI 03:46:33.20 35,75 03:45:56.56
37 BEVILACQUA LUCA M M2 5 EASY BIKE CASTELNUOVO 03:43:48.10 36,19 03:43:32.32
36 WEISS WERNER M M3 11 PRESTIGIO-LGL-MICHE 03:43:46.40 36,20 03:43:04.04
35 SOLI DAVIDE M M3 10 TEAM MG.K VIS-GOBBI-LGL-DEDACCIAI 03:43:46.10 36,20 03:43:00.00
34 VARABIEV MIHAI M ES 6 ASD GEBA TEAM CYCLING 03:42:43.40 36,37 03:42:09.09
33 SPADA MARCO M M2 4 ASD BORELLO CYCLING TEAM 03:42:43.10 36,37 03:42:15.15
32 ZANNONI FABIAN M M3 9 NUOVA PEDALE CIVITANOVESE 03:42:03.80 36,48 03:40:57.60
31 GHETTI WILMER M M3 8 ASD TEAM ROSSETTI 03:42:03.50 36,48 03:39:30.30
30 KAIRELIS DAINIUS M M1 10 TEAM MG.K VIS-GOBBI-LGL-DEDACCIAI 03:40:31.80 36,73 03:39:27.70
29 MONTI ROBERTO M ES 5 GC PEDALE FERMANO AMATORI ASD 03:40:30.10 36,73 03:39:44.44
28 MINIELLO STEFANO M M3 7 ASD GC MELANIA 03:39:33.10 36,89 03:39:17.17
27 NIKANDROV DMITRI M M1 9 ASD TEAM KYKLOS ABRUZZO 03:39:32.90 36,90 03:38:42.70
26 GIOVANNUCCI GIUSEPPE M M2 3 ASD MARY CONFEZIONI CYCLING TEAM 03:39:32.60 36,90 03:38:37.60
25 BERTUOLA ALESSANDRO M M1 8 LEGEND-MICHE-GOBBI 03:39:27.30 36,91 03:39:27.30
24 BONVINI MAURO M M1 7 SERVIGOMME CYCLING TEAM 03:39:12.90 36,95 03:38:18.70
23 RIDOLFI MICHELE M M5 1 ASD TEAM LUCRI 03:39:12.60 36,95 03:39:12.60
22 SALLADINI LORIS M M3 6 SCA OFFIDA 03:39:11.60 36,96 03:38:37.20
21 PIERPAOLI LORENZO M ES 4 TEAM FAUSTO COPPI FERMIGNANO 03:39:09.00 36,96 03:38:02.02
20 D´ASCENZO WLADIMIRO M M3 5 ASD GC MELANIA 03:35:39.70 37,56 03:34:29.40
19 SCARSELLA FRANCESCO M M2 2 ASD TEAM KYKLOS ABRUZZO 03:35:16.20 37,63 03:34:56.56
18 MINUZZO PAOLO M ES 3 LEGEND-MICHE-GOBBI 03:35:05.90 37,66 03:34:27.20
17 DI MATTEO MASSIMO M M3 4 ASD GIANLUCA FAENZA TEAM 03:35:03.80 37,67 03:34:26.10
16 GAROFOLI GIACOMO M M1 6 ASD VALENTI TEAM 03:34:59.60 37,68 03:34:46.00
15 MACHEDA FRANCESCO M M1 5 ASD TEAM LUCRI 03:34:59.20 37,68 03:34:54.54
14 SOLDI ITALO M M4 4 PONTE CYCLING TEAM 03:34:58.70 37,68 03:34:03.60
13 BALLESTRI CRISTIAN M M3 3 INDIVIDUALE 03:34:58.30 37,68 03:33:58.58
12 NICOTRA RICCARDO M M1 4 PRESTIGIO-LGL-MICHE 03:34:58.20 37,68 03:34:58.20
11 RUBECHINI LUCA M M4 3 ASD SAURO SIMONCINI 03:34:57.90 37,68 03:34:37.40
10 MURARO CARLO M M1 3 LEGEND-MICHE-GOBBI 03:34:57.10 37,68 03:34:11.11
9 BUSBANI GIAMPAOLO M M3 2 ASD GIULIODORI RENZO ZEPPA BIKE 03:34:56.20 37,69 03:34:47.47
8 FANTINI ERSILIO M M4 2 TEAM MG.K VIS-GOBBI-LGL-DEDACCIAI 03:34:56.15 37,69 03:34:13.13
7 DAZZANI WILLIAM M M4 1 ASD CICLI COPPARO 03:34:55.20 37,69 03:34:55.20
6 CAPORALETTI MAURIZIO M M3 1 ASD VALENTI TEAM 03:34:38.20 37,74 03:34:12.12
5 FANTINI ALESSANDRO M ES 2 ASD GC MELANIA 03:34:34.60 37,75 03:34:22.22
4 FEDELE MANUEL M ES 1 ASD TEAM KYKLOS ABRUZZO 03:34:34.20 37,75 03:33:54.54
3 MIGLIONICO MICHELE M M2 1 GC PEDALE FERMANO AMATORI ASD 03:34:33.80 37,75 03:34:24.00
2 KRYS HUBERT JACEK M M1 2 ASD CICLI COPPARO 03:34:33.20 37,75 03:34:33.20
1 MACCANTI MICHELE M M1 1 ASD TEAM LUCRI 03:32:06.80 38,19 03:32:06.80

CORTO - 90.0 Km

Pos Atleta Sesso Cat PosC Team Tempo Media RTime
410 MICHELI ROBERTO M M1 49 FALCO RACING 02:50:56.90 31,59 02:50:56.90
409 BOMBARDINI ANDREA M M3 97 PEDALE CESENATE CICLI NERI 02:50:52.60 31,60 02:47:03.00
408 NERI ALBERTO M M3 96 PEDALE CESENATE CICLI NERI 02:50:52.40 31,60 02:47:01.01
407 MAGGI MARCO M M4 69 TEAM CINELLI GLASS´NGO 02:50:52.30 31,60 02:50:50.50
406 PITTURA MAURO M M2 60 ASD FD STEEL 02:50:48.10 31,62 02:49:47.47
405 BERLUTI HAMOS M M2 59 SERVIGOMME CYCLING TEAM 02:50:41.90 31,64 02:46:58.90
404 BIANCHI SIMONE M M2 58 SERVIGOMME CYCLING TEAM 02:50:41.60 31,64 02:46:58.58
403 CHIANURA CARLO M M1 48 AVIS FRECCE AZZURRE 02:50:40.60 31,64 02:49:30.30
402 CONTI SIMONE M M3 95 TEAM FAUSTO COPPI FERMIGNANO 02:50:38.10 31,65 02:48:56.56
401 LUPIDI LUIGINO M M8 3 ASD GSC TOR SAPIENZA 02:50:34.10 31,66 02:46:51.51
400 D´ORAZIO ORAZIO M M5 45 ASD GS CICLOMANIA 2007 02:50:21.50 31,70 02:46:47.30
399 CAVALERA DANIELE M M4 68 ASD GS CICLOMANIA 2007 02:50:21.45 31,70 02:46:41.25
398 CURINI UMBERTO M M4 67 ASD D´ASCENZO BIKE 02:50:19.20 31,71 02:47:41.41
397 SAMPAOLO MARCO M M3 94 TEAM VITALITY 02:50:15.70 31,72 02:46:44.60
396 BELLEGGIA SERGIO M M5 44 ASD POLISPORTIVA BELMONTESE 02:49:37.00 31,84 02:48:34.34
395 MASTROVINCENZO MARIO M M2 57 ASD NEWTEAM ESSEBI 02:49:09.90 31,92 02:49:00.30
394 VITA GIORGIO M M3 93 NUOVA PEDALE CIVITANOVESE 02:49:08.70 31,93 02:47:53.50
393 BALDINI GIANLUCA M M4 66 BICI SHOP FACTORY TEAM 02:49:07.20 31,93 02:45:43.00
392 DALLA NOCE PAOLO M M3 92 ASD BORN TO RUN 02:48:57.20 31,96 02:47:13.13
391 ZAMPONI STEFANO M M5 43 GS CICLI MATTEONI FRW 02:48:56.20 31,97 02:47:59.59
390 MESSERSI´ FEDERICO M M2 56 FREE BIKERS SENIGALLIA ASD 02:48:51.50 31,98 02:45:46.50
389 CANGIOTTI GIOVANNI M ES 33 ASD TEAM LUCRI 02:48:46.20 32,00 02:48:44.44
388 GIANGIACOMO ANGELO M M5 42 ASD SOLO NOI 02:48:36.60 32,03 02:45:07.07
387 FILIPPINI MARCO M M2 55 GS AUTOCARROZZERIA RICHY 02:48:36.40 32,03 02:45:47.10
386 ROSCIOLI SONIA F W2 10 ASD GC MELANIA 02:48:36.30 32,03 02:48:24.24
385 CONTI ACHILLE M M6 30 PLANET FITNESS BIKE ASD 02:48:36.25 32,03 02:46:52.05
384 CAPPARUCCINI LUCA M M1 47 ASD MTB GROUP TRIT KATENE 02:48:36.10 32,03 02:45:24.24
383 VENEZIANO LUIGINO M M6 29 YOUNG LINE 02:48:35.40 32,03 02:46:03.03
382 TARABELLO PAOLO M M3 91 ASD PEDALE AGUGLIANESE 02:48:35.20 32,03 02:45:02.02
381 BIANCHEDI EMANUELA F W2 9 BD FAST CYCLING TEAM 02:48:34.80 32,03 02:47:57.10
380 NASINI GIANFRANCO M M4 65 ASD FUTUR BIKE 02:48:34.20 32,03 02:45:33.33
379 LOTTATORI ELENA F W2 8 ASD FUTUR BIKE 02:48:34.20 32,03 02:47:29.29
378 MOSCA DANIELE M M1 46 GS AVIS BIKE CINGOLI 02:48:34.10 32,03 02:45:39.39
377 MELONI MANUELE M M2 54 ASD GC MELANIA 02:48:33.80 32,04 02:48:21.70
376 FINOCCHI SAVERIO M M6 28 FFA CUS SPINNINGS ACADEMY 02:48:32.90 32,04 02:45:16.60
375 MONACELLI VINCENZO M M4 64 TEAM VITTORIO BIKE ASD 02:48:32.60 32,04 02:47:33.33
374 MAIORI TIZIANO M M4 63 ASD SAURO SIMONCINI 02:48:31.70 32,04 02:47:07.70
373 TESTORI SIMONE M M3 90 RAMPI CLUB BRIANZA 02:48:30.50 32,05 02:45:34.50
372 CARBONI RAFFAELE M M4 62 ASD NEWTEAM ESSEBI 02:48:30.40 32,05 02:47:14.14
371 AIUDI GIUSEPPE M M5 41 SCD FANESE 02:48:09.30 32,11 02:46:34.30
370 ANDRENACCI ENZO M M5 40 FFA CUS SPINNINGS ACADEMY 02:48:01.80 32,14 02:45:13.80
369 BONIFAZI ALESSIO M M1 45 AVIS FRECCE AZZURRE 02:47:57.80 32,15 02:46:08.20
368 LONGARINI VILSON M M7 6 SCD FANESE 02:47:57.40 32,15 02:46:17.17
367 DI VALENTINO ANTONIO M M8 2 ASD D´ASCENZO BIKE 02:47:57.10 32,15 02:46:38.38
366 FILIAGGI GIANCARLO M M5 39 ASD NA´ PEDALATA NA´ MAGNATA 02:46:49.40 32,37 02:43:18.18
365 GIOVANNELLI MONICA F W2 7 SERVIGOMME CYCLING TEAM 02:46:46.20 32,38 02:45:51.51
364 CASELLI MICHELE M M1 44 SERVIGOMME CYCLING TEAM 02:46:30.00 32,43 02:44:30.30
363 MANZELLA PIETRO M M2 53 ASD MARY CONFEZIONI 02:46:23.70 32,46 02:44:23.50
362 FORESI ANDREA M M4 61 ASD PEDALE FERMANO 02:46:16.00 32,48 02:43:29.29
361 PIERSANTI EUGENIO M M3 89 SERVIGOMME CYCLING TEAM 02:46:15.70 32,48 02:44:24.40
360 PROTTI MAURIZIO M M6 27 LGL BIKE TEAM 02:46:14.00 32,48 02:45:33.33
359 BENVENUTO GIANFRANCO M M2 52 ASD NEW LIMITS - STUDIO MODA 02:46:11.50 32,49 02:42:43.50
358 SENSOLINI ATTILIO M M4 60 GS DOGANA 02:46:11.45 32,49 02:43:59.15
357 PITTON WALTER M M7 5 TEAM PROFESSIONAL BIKE 02:46:09.90 32,50 02:42:53.50
356 TARANTELLI LUCIANO M M4 59 ASD PEDALE AGUGLIANESE 02:46:09.60 32,50 02:43:26.00
355 ROSAVERDE DANIELE M M5 38 ASD TEAM GALIARDI 02:46:09.30 32,50 02:42:46.10
354 BEI PRIMO M M5 37 ASD POLISPORTIVA BELMONTESE 02:46:08.20 32,50 02:44:19.19
353 SCARPELLINI DENIS M M3 88 ASD TEAM AQUILOTTI CERVIA 02:46:07.50 32,51 02:43:17.20
352 CERASI PINO M M4 58 ASD D´ASCENZO BIKE 02:46:07.00 32,51 02:43:29.29
351 RIPA´ CORRADINO M M1 43 RUOTE LIBERE ASD 02:46:01.90 32,53 02:43:11.80
350 ANGELINI ROBERTO M M6 26 AVIS FRECCE AZZURRE 02:46:01.10 32,53 02:44:26.26
349 SENSINI ANGELO M M6 25 AVIS FRECCE AZZURRE 02:45:45.30 32,58 02:43:55.55
348 GUIDUCCI WALTER M M5 36 ASD SMIRRA BIKE 02:45:07.80 32,70 02:42:19.40
347 MOBILI ALESSANDRO M M2 51 TEAM SCAP FORESI 02:44:30.70 32,83 02:42:51.20
346 MAGNARINI ENRICO M M1 42 FALCO RACING 02:44:26.10 32,84 02:41:03.03
345 FEDERICI ENRICO M M2 50 GS CICLO CLUB CALCINELLI ASD 02:44:09.30 32,90 02:41:56.20
344 BELLETTI GIAMPIERO M M5 35 ASD ADRIA & SIBILLA 02:44:04.50 32,91 02:42:08.08
343 MARIOTTI NICOLA M ES 32 ASD NEWTEAM ESSEBI 02:44:02.80 32,92 02:42:10.20
342 ABBRUGIATI FRANCESCO M M2 49 FREE BIKERS SENIGALLIA ASD 02:43:45.50 32,98 02:40:00.00
341 OLIVIERI GIOVANNI M M4 57 ASD CICLISMO E SOLIDARIETA´ LEGA DEL FILO D´ORO 02:43:45.45 32,98 02:42:19.19
340 CAPORASO GIOVANNI M M6 24 ASD CICLISTICA SANNITA 02:43:32.70 33,02 02:39:45.40
339 JACHETTA RENZO M M3 87 AC RECANATI 02:43:18.00 33,07 02:43:18.00
338 BRAMUCCI ROBERTO M M4 56 FREE BIKERS SENIGALLIA ASD 02:43:14.80 33,08 02:40:12.70
337 SKISLOWSKI EMANUELE M M2 48 ASD NEWTEAM ESSEBI 02:43:00.50 33,13 02:40:21.21
336 RAFFAELLI GIOVANNI M M3 86 ASD NEWTEAM ESSEBI 02:42:49.30 33,17 02:39:49.49
335 COPPA MAURIZIO M M4 55 ASD CICLI COPPARO 02:42:29.30 33,23 02:42:28.28
334 CAPRIOTTI ACHILLE M M3 85 5311 SC 02:42:27.70 33,24 02:41:41.10
333 PALAZZO LAVINIA F W2 6 5311 SC 02:42:27.40 33,24 02:41:49.49
332 CATAFFO GIANNAMARIA F W2 5 SCD FANESE 02:42:26.60 33,24 02:40:55.55
331 BRIZZI FRANCESCO M M4 54 SCD FANESE 02:42:20.60 33,26 02:39:33.40
330 LUCHETTI LUCA M M4 53 INDIVIDUALE 02:42:19.90 33,27 02:40:01.50
329 CICCARELLI LORENZO M M4 52 TEAM CINGOLANI - SPECIALIZED 02:42:18.30 33,27 02:38:51.51
328 SILEI LAURA F W1 5 ASD VC SANTA MARIA DEGLI ANGELI 02:42:18.20 33,27 02:41:39.39
327 SERAFINI ERMANNO M M4 51 ASD POLISPORTIVA BELMONTESE 02:42:18.15 33,27 02:40:30.30
326 MENGONI ROBERTO M M3 84 ASD VC SANTA MARIA DEGLI ANGELI 02:42:17.90 33,28 02:38:58.80
325 DEL PRETE PIERLUIGI M M8 1 PRESTIGIO CAME GIORDANA 02:42:17.40 33,28 02:41:14.00
324 BLASETTI MASSIMILIANO M M2 47 AQSL SC CAMPOROTONDO ASD 02:42:16.80 33,28 02:38:45.00
323 FIORETTI GIANLORENZO M M4 50 ASD BIKE TEAM JESI 02:42:15.80 33,28 02:38:52.50
322 CECCHETTI IVANO M M6 23 MASSI CYCLING POINT 02:42:13.80 33,29 02:39:30.40
321 POLCI STEFANO M M1 41 CLUB PEDALE FINPROJECT 02:42:13.60 33,29 02:41:40.30
320 COLOCCI GIACOMO M M4 49 ASD BIKE TEAM JESI 02:42:02.30 33,33 02:38:42.42
319 MONGELLI ALESSANDRO M M3 83 ASD GS CHIARAVALLE 02:42:02.25 33,33 02:41:57.57
318 FILONZI FABRIZIO M M4 48 BICI SHOP FACTORY TEAM 02:41:58.60 33,34 02:38:40.20
317 CIATTAGLIA AURELIANO M M4 47 ASD RUOTA LIBERA MOIE 02:41:57.70 33,34 02:39:11.30
316 CIRILLI LUCA M M3 82 ASD BORN TO RUN 02:41:55.70 33,35 02:39:04.30
315 MINICUCCI NAZZARIO M M6 22 ASD POLISPORTIVA BELMONTESE 02:41:49.10 33,37 02:40:02.02
314 BELARDINELLI NISO M M5 34 GC SETTECOLLI ASD FILOTTRANO 02:41:30.50 33,44 02:39:11.50
313 PESARESI FAUSTO M M6 21 BICI SHOP FACTORY TEAM 02:41:29.80 33,44 02:38:02.80
312 PORCARELLI GIANLUCA M M5 33 PONTE CYCLING TEAM 02:41:28.40 33,44 02:39:09.09
311 BUSSOLOTTO GIUSEPPE M M4 46 N. LIMITS ASD - STUDIO MODA 02:41:22.40 33,46 02:39:58.00
310 ROSSI MARCO M M1 40 ASD BIKE TEAM CANSIGLIO 02:41:22.10 33,46 02:39:11.11
309 BESA GIANCARLO M M3 81 ASD BIKE TEAM CANSIGLIO 02:41:21.10 33,47 02:39:12.12
308 FRIGATTI STEFANO M M1 39 N. LIMITS ASD - STUDIO MODA 02:41:08.10 33,51 02:40:34.34
307 SPINOZZI MAURIZIO M M2 46 SCA OFFIDA 02:41:03.80 33,53 02:37:54.54
306 MONDATI ENNIO M M5 32 CICLO CLUB VALLONE 02:40:59.90 33,54 02:38:10.60
305 LANDI FEDERICO M M3 80 BICI SHOP FACTORY TEAM 02:40:50.80 33,58 02:37:29.00
304 FANTINI DILETTA F W1 4 ASD FD STEEL 02:40:50.20 33,58 02:39:51.51
303 GROTTINI DANIELE M M3 79 ASD FD STEEL 02:40:49.90 33,58 02:39:50.60
302 TASSI LUCA M M3 78 ASD WAYPOINT MTB FILOTTRANO 02:40:48.70 33,58 02:38:12.20
301 BERARDI DANIELE M M4 45 ASD NEWTEAM ESSEBI 02:40:47.10 33,59 02:38:54.54
300 ROSA FRANCO M M6 20 SCD FANESE 02:40:30.90 33,64 02:37:19.70
299 RUBECHINI ANDREA M NC 3 TEAM CINGOLANI - SPECIALIZED 02:40:30.40 33,64 02:38:33.33
298 MAGLIANESI MARIO M M6 19 ASD POLISPORTIVA BELMONTESE 02:40:29.90 33,65 02:38:49.20
297 VECCHIONI SANTE M M5 31 ASD POLISPORTIVA BELMONTESE 02:40:29.80 33,65 02:38:44.10
296 SANTARELLI ANDREA M M1 38 ASD PEDALE AGUGLIANESE 02:40:29.00 33,65 02:38:05.05
295 MORELLI MATTEO M M2 45 VELO CLUB GUBBIO 02:40:10.20 33,71 02:36:59.00
294 PENNACCHIOLI MARCO M M1 37 VELO CLUB GUBBIO 02:40:09.70 33,72 02:36:57.70
293 GIULIETTI FABIO M M5 30 BICI SHOP FACTORY TEAM 02:40:06.90 33,73 02:36:39.70
292 PICCIRILLO LUIGI M M4 44 ASD ECOLOGY TEAM 02:40:06.85 33,73 02:37:57.35
291 GASPARRONI STEFANO M M3 77 N. LIMITS ASD - STUDIO MODA 02:40:05.90 33,73 02:36:41.50
290 BOLOGNA LUCA M M6 18 GC SANTARCANGIOLESE 02:40:05.60 33,73 02:36:51.40
289 BALDASSARRI MICHELE M M1 36 GS CICLI MATTEONI FRW 02:40:05.40 33,73 02:36:31.31
288 MARCELLI VALERIO M M5 29 LIFE CODE TEAM 02:40:05.35 33,73 02:37:27.27
287 BOLOGNA ALESSANDRO M M5 28 LIFE CODE TEAM 02:40:05.20 33,73 02:36:51.51
286 CAMPANARI CRISTIAN M ES 31 ASD MONTE CONERO BIKE 02:40:05.10 33,73 02:36:33.33
285 CARNAROLI STEFANO M M3 76 GS CICLO CLUB CALCINELLI ASD 02:39:57.90 33,76 02:37:48.20
284 MORRI DEBORA F W2 4 ASD MEDINOX 02:39:46.20 33,80 02:39:00.00
283 CAMILLUCCI ALEX M ES 30 SERVIGOMME CYCLING TEAM 02:39:43.20 33,81 02:37:42.42
282 CINTI ALESSANDRO M M2 44 ASD BORN TO RUN 02:39:35.70 33,84 02:38:19.40
281 BONAMENTE EZIO M M6 17 ASD VC SANTA MARIA DEGLI ANGELI 02:39:18.30 33,90 02:37:49.49
280 FIORAVANTI LUIGI M M3 75 ALESSI POL APPIGNANO DEL TRONTO 02:39:17.90 33,90 02:37:31.30
279 CECCHINELLI AMERIGO STEFANO M M4 43 ASD CICLI COPPOLA 02:39:17.80 33,90 02:37:02.80
278 BIANCHI HARIS M M3 74 GS CICLI MATTEONI FRW 02:39:04.10 33,95 02:36:58.58
277 FUNARI WALTER M ES 29 ASD POLISPORTIVA BELMONTESE 02:39:02.80 33,96 02:37:14.80
276 DE LUCA ROBERTO M M6 16 ASD MARY CONFEZIONI 02:38:57.00 33,97 02:37:32.32
275 EGAZI MOHAMED ISLAM M M1 35 CICLO CLUB VALLONE 02:38:54.70 33,98 02:35:55.55
274 BARTOLUCCI MATTEO M M2 43 ASD NEWTEAM ESSEBI 02:38:54.40 33,98 02:36:20.10
273 BALEANI ROSSANO M M4 42 GS F.LLI COLA 02:38:53.90 33,99 02:37:16.10
272 MASSACESI ROLDANO M M5 27 PONTE CYCLING TEAM 02:38:52.10 33,99 02:38:52.10
271 DI CURZIO DANIELE M M2 42 ASD GIULIODORI RENZO ZEPPA BIKE 02:38:51.60 33,99 02:37:40.40
270 OTTAVIANI VITTORIO M M3 73 ASD WIND BIKE 02:38:49.00 34,00 02:35:32.32
269 MILOZZI MARCO M M3 72 NUOVA PEDALE CIVITANOVESE 02:38:40.20 34,03 02:36:50.00
268 RADICI FEDERICO M M3 71 SCD FANESE 02:38:36.30 34,05 02:37:01.01
267 FEDERICI ANTONIO M M1 34 ASD VC SANTA MARIA DEGLI ANGELI 02:38:30.50 34,07 02:35:06.40
266 BARTOLUCCI MICHELE M M3 70 ASD CRAL CARIFANO 02:38:25.40 34,09 02:36:03.10
265 ACCRESCIMBENI ALESSANDRO M M3 69 GS AVIS BIKE CINGOLI 02:37:58.00 34,18 02:35:36.36
264 CONCORDI TIBERIO M M6 15 ALESSI POL APPIGNANO DEL TRONTO 02:37:50.10 34,21 02:35:05.05
263 GIULIANI DENIS M ES 28 GS CICLO CLUB CALCINELLI ASD 02:37:50.05 34,21 02:35:39.39
262 COLA FRANCESCO M M5 26 GS F.LLI COLA 02:37:32.70 34,28 02:35:58.20
261 ELEUTERI DOMENICO M ES 27 ASD NA´ PEDALATA NA´ MAGNATA 02:37:29.50 34,29 02:33:49.00
260 CARLI MICHELE M M1 33 ASD SPEEDY CESENA 02:37:27.30 34,30 02:36:47.00
259 CAPPANERA MASSIMO M M1 32 FALCO RACING 02:37:26.30 34,30 02:37:26.30
258 LANARI ROBERTO M M5 25 GC SETTECOLLI ASD FILOTTRANO 02:37:25.10 34,30 02:35:08.08
257 ISIDORI ENZO M M7 4 ASD POLISPORTIVA BELMONTESE 02:37:22.70 34,31 02:35:41.40
256 STEFANINI MASSIMO M M6 14 ASD GS CHIARAVALLE 02:37:22.20 34,31 02:37:16.16
255 MONTENOVO DAVIDE M M2 41 ASD CICLI COPPARO 02:37:15.70 34,34 02:37:12.20
254 MARCHETTI ALESSANDRO M M3 68 ASD CICLO CLUB RECANATI 1988 02:36:52.20 34,42 02:35:08.08
253 SVAMPA ANDREA M M5 24 ASD VALENTI TEAM 02:36:50.90 34,43 02:33:36.40
252 SPALLACCI FRANCESCO M M4 41 CLUB AMICI DELLA BICI SENIGALLIA 02:36:50.20 34,43 02:33:55.10
251 CECCHI MONICA F W1 3 ASD SPEEDY CESENA 02:36:45.80 34,45 02:36:45.80
250 PIZZICOTTI CRISTIANO M M3 67 PONTE CYCLING TEAM 02:36:44.40 34,45 02:33:38.38
249 FABBIETTI DIEGO M M3 66 ASD RAGAMON CYCLING TEAM 02:36:44.00 34,45 02:34:10.10
248 GASPARINI SAURO M M4 40 ASD GS CHIARAVALLE 02:36:34.40 34,49 02:36:28.00
247 BASTIANELLI FEDERICO M M3 65 BICI SHOP FACTORY TEAM 02:36:28.80 34,51 02:34:12.60
246 SCARPONI UMBERTO M M5 23 GS F.LLI COLA 02:36:21.00 34,54 02:34:47.47
245 PETROCCHI ADELINO M M3 64 ASD NA´ PEDALATA NA´ MAGNATA 02:36:17.90 34,55 02:32:38.70
244 SUMA VITO M M1 31 ASD PEDALE ROSSOBLU - PICENUM 02:36:11.90 34,57 02:33:31.80
243 MARCOZZI SILVIA F W1 2 GS CICLI MATTEONI FRW 02:36:11.10 34,57 02:35:35.35
242 STACCINI ANDREA M M2 40 VELO CLUB GUBBIO 02:36:10.90 34,58 02:34:44.40
241 MANUSIA ANDREA M M3 63 GS CICLI MATTEONI FRW 02:36:10.80 34,58 02:35:33.40
240 GAVAUDAN STEFANO M M4 39 ASD PEDALE AGUGLIANESE 02:36:08.70 34,59 02:34:43.43
239 DI LENARDO ALESSANDRO M M4 38 CICLO CLUB VALLONE 02:36:07.90 34,59 02:32:59.50
238 ORCIANI DAVIDE M M4 37 CICLO CLUB VALLONE 02:36:07.85 34,59 02:32:57.55
237 ULISSE MICHELE M M2 39 ASD SAURO SIMONCINI 02:36:01.70 34,61 02:34:36.60
236 DEL BUONO MATTEO M M3 62 FALCO RACING 02:35:58.50 34,62 02:33:42.42
235 LUCCONI MAURIZIO M M4 36 ASD PEDALE AGUGLIANESE 02:35:57.50 34,63 02:35:25.25
234 BATTISTELLI MAURO M M3 61 ASD FUTUR BIKE 02:35:55.30 34,63 02:34:18.30
233 PIRACCINI MANUELE M M5 22 AS LA TORRE BATMANIA 02:35:53.30 34,64 02:32:48.48
232 BATTISTINI IVANO M M3 60 AS LA TORRE BATMANIA 02:35:53.10 34,64 02:32:51.51
231 DE CARLONIS MARCO M M3 59 ASD FUTUR BIKE 02:35:53.00 34,64 02:32:53.53
230 PRIORI TRENTINO M M4 35 ALESSI POL APPIGNANO DEL TRONTO 02:35:29.10 34,73 02:34:35.35
229 TINTI MARCO M M4 34 5311 SC 02:35:05.60 34,82 02:33:37.10
228 SIMONETTI IVANO M M3 58 ASD TEAM MATE´ 02:34:39.60 34,92 02:30:52.52
227 PIGLIAPOCO MAURO M ES 26 GS AVIS BIKE CINGOLI 02:34:35.80 34,93 02:33:14.60
226 BATTISTONI ROBERTO M M4 33 GS VALCONCA OTTICA BIONDI 02:34:10.90 35,03 02:31:58.70
225 BARTOLI MAURO M M3 57 GS VALCONCA OTTICA BIONDI 02:34:10.70 35,03 02:31:58.70
224 FIEZZI PAOLO M M4 32 ASD SAURO SIMONCINI 02:34:10.40 35,03 02:33:50.50
223 MOSCATELLI MAURO M M4 31 ASD MISTERBICI FABRIANO 02:34:10.20 35,03 02:33:09.09
222 TEBALDI ROBERTO M M5 21 VELO CLUB CATTOLICA 02:34:09.60 35,03 02:32:04.10
221 FANTINI FABRIZIO M M3 56 ASD GIULIODORI RENZO ZEPPA BIKE 02:34:09.55 35,03 02:32:46.46
220 SAMPAOLESI EMANUELA F W2 3 ASD SAURO SIMONCINI 02:34:08.80 35,03 02:33:49.49
219 FEBO SIMONE M ES 25 VELO CLUB CICLI CINGOLANI ASD 02:33:49.70 35,11 02:31:10.10
218 COLANGELI MARIO M M4 30 ASD D´ASCENZO BIKE 02:33:43.10 35,13 02:32:17.10
217 COVELLI ROBERTO M M2 38 ASD D´ASCENZO BIKE 02:33:42.90 35,13 02:32:17.40
216 RICCETTI EMANUELE M M2 37 ASD ALL4CYCLING-BDC-FORUM TEAM 02:33:29.10 35,18 02:30:48.48
215 FERRETTI FABRIZIO M M3 55 ASD NEWTEAM ESSEBI 02:33:07.00 35,27 02:31:16.16
214 BARTOLUCCI DIEGO M M1 30 GS AVIS BIKE CINGOLI 02:33:02.00 35,29 02:31:44.44
213 TREBBI FRANCESCO M M2 36 LGL BIKE TEAM 02:33:01.00 35,29 02:31:57.57
212 FRANCELLA EMANUELE M M3 54 VELO CLUB CICLI CINGOLANI ASD 02:32:39.10 35,38 02:30:06.06
211 EUTIZI ENRICO M M1 29 SCD FANESE 02:32:33.40 35,40 02:29:41.20
210 PECCI MASSIMILIANO M M3 53 ASD NEWTEAM ESSEBI 02:32:31.80 35,41 02:31:14.70
209 SIDERI PAOLO M M4 29 GS CICLI OLIVIERI 02:32:31.60 35,41 02:31:41.41
208 STRAMUCCI SERGIO M M6 13 GS AVIS PEDALE SANGIUSTESE 02:32:31.40 35,41 02:30:39.00
207 ALBANESE SANTO M ES 24 GS CICLI MATTEONI FRW 02:32:30.90 35,41 02:29:55.90
206 CIUFFINI FRANCECSO M M2 35 ASD MKG CYCLING TEAM 02:32:30.30 35,41 02:32:14.10
205 SMACCHIA DANIELE M M1 28 ASD GS MONDOBICI 02:32:30.25 35,41 02:30:00.00
204 BATTAGLINO ANDREA M M3 52 ASD MKG CYCLING TEAM 02:31:26.90 35,66 02:29:24.80
203 MURA FRANCESCO M M2 34 SERVIGOMME CYCLING TEAM 02:30:53.50 35,79 02:28:53.53
202 TRILLINI LUIGI M M4 28 ASD WAYPOINT MTB FILOTTRANO 02:30:40.60 35,84 02:28:07.10
201 ASTOLFI CLAUDIO M M4 27 SS FRECCE ROSSE RIMINI 02:30:39.00 35,84 02:29:58.58
200 ROMANI OLFER M M3 51 ASD GS MONDOBICI 02:30:38.60 35,85 02:28:03.00
199 GIORGI MASSIMO M M4 26 SS FRECCE ROSSE RIMINI 02:30:38.50 35,85 02:29:57.57
198 TIRABASSO ANDREA M M2 33 ASD POLISPORTIVA BELMONTESE 02:30:38.45 35,85 02:29:11.45
197 SPURI SILVESTRINI MICHELA F W1 1 VELO CLUB CICLI CINGOLANI ASD 02:30:38.00 35,85 02:30:14.14
196 ZANOLA MICHELA F W2 2 SS FRECCE ROSSE RIMINI 02:30:37.80 35,85 02:29:58.60
195 PIERDICCA DAMIANO M M2 32 ASD TEAM LUCRI 02:30:36.50 35,86 02:29:49.40
194 MOSCATELLI THOMAS M M2 31 SCD FANESE 02:30:36.10 35,86 02:29:00.00
193 SCIPIONI GIUSEPPE M NC 2 ASD TEAM BIKE TERAMO 02:30:35.60 35,86 02:27:55.30
192 GAETANI SANDRO M M1 27 ASD ACQUAVIVA PICENA 02:30:35.30 35,86 02:28:45.10
191 LALLONE ABRAMO M M1 26 SCA OFFIDA 02:30:34.60 35,86 02:29:21.21
190 GIORGI GIANLUCA M M3 50 ASD NEW WILD ROSE 02:30:26.90 35,90 02:30:11.80
189 CARDELLA DAVID M M2 30 INDIVIDUALE 02:30:23.80 35,91 02:27:50.50
188 POMERI ALESSANDRO M ES 23 ASD VALENTI TEAM 02:30:22.50 35,91 02:27:40.40
187 GRECO VINCENZO M M5 20 CICLO CLUB VALLONE 02:30:20.50 35,92 02:27:25.25
186 STORETTI FABRIZIO M M5 19 CICLO CLUB VALLONE 02:30:20.30 35,92 02:27:23.10
185 ROSSI MICHELE M M4 25 FALCO RACING TEAM 02:30:19.80 35,92 02:28:05.70
184 MANFREDI PERICLE M M6 12 ASD SAURO SIMONCINI 02:30:18.90 35,93 02:27:34.10
183 SCATOZZA TINO M M2 29 ASD RAGAMON CYCLING TEAM 02:30:17.40 35,93 02:29:29.29
182 D´ANGELO VINCENZO M M2 28 INFISSI SANTOFERRARA 02:30:16.90 35,94 02:27:44.80
181 CAVALIERI FABRIZIO M M5 18 UC PETRIGNANO ASD 02:30:16.50 35,94 02:29:07.07
180 GRANATO GENNARO M NC 1 UC PETRIGNANO ASD 02:30:15.50 35,94 02:29:06.06
179 BUCCI GLAUCO M M6 11 ALESSI POL APPIGNANO DEL TRONTO 02:30:00.40 36,00 02:28:14.14
178 SOTTILI BRUNO M M6 10 ASD NEWTEAM ESSEBI 02:29:59.30 36,00 02:28:50.50
177 TORRIANI ROBERTO M M5 17 PONTE CYCLING TEAM 02:29:58.10 36,01 02:26:48.10
176 SAVINI MATTEO M ES 22 ASD PEDALE CHIARAVALLESE 02:29:57.40 36,01 02:29:44.44
175 GIANNINI LUCA M M4 24 LIFE CODE TEAM 02:29:57.00 36,01 02:27:22.22
174 MARCELLETTI DANIELE M M5 16 FALCO RACING 02:29:56.80 36,02 02:27:35.20
173 FRUSTO HENRY M ES 21 ASD MONTE CONERO BIKE 02:29:56.00 36,02 02:26:34.34
172 PLACIDI LUCIANO M M6 9 AMICI PER LA BICI 02:29:54.70 36,02 02:28:12.40
171 MARIANI GIANLUCA M M3 49 ASD TEAM LUCRI 02:29:54.60 36,02 02:29:52.30
170 COLAGE´ GRAZIANO M M3 48 ASD D´ASCENZO BIKE 02:29:54.50 36,02 02:28:32.32
169 MARCOLINI FRANCO M M5 15 GS CICLI OLIVIERI 02:29:54.40 36,02 02:27:19.19
168 LUCARONI FABIO M M4 23 ASD VC SANTA MARIA DEGLI ANGELI 02:29:54.10 36,02 02:28:09.09
167 BRUNORI GIACOMO M ES 20 ASD CICLI COPPARO 02:29:53.50 36,03 02:29:50.50
166 MAINARDI FABRIZIO M M6 8 ASD PAGNOCELLI NGC PERREL 02:29:53.10 36,03 02:27:12.12
165 BATTISTELLI ANDREA M M3 47 ASD NEWTEAM ESSEBI 02:29:52.90 36,03 02:28:33.20
164 MORRESI SIMONE M M1 25 ASD WAYPOINT MTB FILOTTRANO 02:29:52.30 36,03 02:27:15.15
163 CICATIELLO RAFFAELE M M2 27 ASD RAGAMON CYCLING TEAM 02:29:52.25 36,03 02:27:34.34
162 DEL ROSSO MASSIMO M M5 14 RAVEN TEAM 02:29:51.60 36,04 02:28:26.26
161 COCCIA CLAUDIO M M4 22 ASD SOLO NOI 02:29:51.55 36,04 02:26:30.35
160 PAOLETTI CARLO M M3 46 ASD VALENTI TEAM 02:29:51.50 36,04 02:27:10.50
159 DI COLA MARIO M M1 24 ASD CINGHIALI DELLA MAIELLA 02:29:50.40 36,04 02:27:04.30
158 VECCHI LAMBERTO M M4 21 ASD FD STEEL 02:29:50.20 36,04 02:28:52.52
157 TOGNINI LUCA M M3 45 ASD NEWTEAM ESSEBI 02:29:43.30 36,07 02:29:17.30
156 SARDINI ERMANNO M M3 44 ASD POLISPORTIVA BELMONTESE 02:29:42.30 36,07 02:28:15.00
155 ROSINI LUIGI M M3 43 ASD D´ASCENZO BIKE 02:29:41.10 36,08 02:28:20.20
154 SECONDI EMANUELE M M3 42 ASD NEWTEAM ESSEBI 02:29:35.70 36,10 02:26:42.50
153 TARSI GABRIELE M M2 26 PONTE CYCLING TEAM 02:29:08.00 36,21 02:26:40.40
152 NADDEO GIOVANNI M M2 25 SERVIGOMME CYCLING TEAM 02:29:07.30 36,21 02:28:05.05
151 MORBIDONI RENATO M M3 41 ASD AVIS FALCONARA AMATORI CICLISMO 02:28:52.60 36,27 02:28:52.60
150 MARIANTONI GIULIANO M M6 7 ASD GS CHIARAVALLE 02:28:48.10 36,29 02:28:48.10
149 PIERONI MATTEO M ES 19 ASD GIULIODORI RENZO ZEPPA BIKE 02:28:47.20 36,29 02:25:21.21
148 NASPI LUCIO M M5 13 ASD NEWTEAM ESSEBI 02:28:38.60 36,33 02:28:16.40
147 SCIARRA ALFREDO M M3 40 ASD FUTUR BIKE 02:28:30.80 36,36 02:28:11.70
146 PIERANTONI PAOLO M M1 23 FALCO RACING 02:28:20.00 36,40 02:28:20.00
145 STOPPONI ROBERTO M M5 12 ASD GS CHIARAVALLE 02:27:44.30 36,55 02:27:37.30
144 BALDI MASSIMILIANO M M3 39 ASD MISTERBICI FABRIANO 02:27:44.20 36,55 02:26:23.23
143 LORI CLAUDIO M M2 24 ASD MISTERBICI FABRIANO 02:27:43.80 36,56 02:26:25.70
142 GIACHE´ LUCA M ES 18 VELO CLUB CICLI CINGOLANI ASD 02:27:42.90 36,56 02:26:40.20
141 GAROFOLI GIANLUCA M M2 23 ASD VALENTI TEAM 02:26:56.70 36,75 02:26:56.70
140 FRATERNALI FABRIZIO M M4 20 TEAM FAUSTO COPPI FERMIGNANO 02:26:02.50 36,98 02:24:40.10
139 CURATI ALESSANDRO M M3 38 ASD SMIRRA BIKE 02:25:09.00 37,20 02:22:40.40
138 VIANINI GIORGIO M M4 19 TEAM CINELLI GLASS´NGO 02:25:08.30 37,21 02:25:08.30
137 SILANO FABIO M M1 22 TEAM CINELLI GLASS´NGO 02:25:08.25 37,21 02:25:07.07
136 PALOMBO RAFFAELLA F W2 1 TEAM CINELLI GLASS´NGO 02:25:07.80 37,21 02:25:07.80
135 SOCCI FAUSTINO M M5 11 ASD GIULIODORI RENZO ZEPPA BIKE 02:25:04.90 37,22 02:24:32.50
134 SCIARRONI DANILO M M1 21 ASD GC MELANIA 02:24:53.60 37,27 02:23:45.45
133 GIROLIMINI MARCO M M4 18 ASD NEWTEAM ESSEBI 02:24:51.30 37,28 02:23:42.20
132 BONAZZOLI LUCA M M3 37 ASD NEWTEAM ESSEBI 02:24:51.20 37,28 02:23:23.00
131 GIULIANI ENRICO M M6 6 GS AVIS PEDALE SANGIUSTESE 02:24:50.30 37,28 02:22:52.52
130 DURANTI GIANLUCA M M3 36 FALCO RACING 02:24:47.00 37,30 02:24:47.00
129 PIERINI MIRKO M M2 22 5311 SC 02:24:46.80 37,30 02:21:53.40
128 BOTTONI RICCARDO M M1 20 AVIS FRECCE AZZURRE 02:24:46.70 37,30 02:22:39.60
127 GIANSANTI VALERIO M M1 19 ASD VC SANTA MARIA DEGLI ANGELI 02:24:46.60 37,30 02:23:00.00
126 RICCIARDI FABIO M M1 18 ASD BORN TO RUN 02:24:46.00 37,30 02:23:26.26
125 GASPARRI ANDREA M M1 17 ASD NEWTEAM ESSEBI 02:24:45.90 37,31 02:23:42.10
124 MAGINI GABRIELE M M3 35 ASD RAGAMON CYCLING TEAM 02:24:45.70 37,31 02:24:25.50
123 DEL CONTE MORIS M M3 34 5311 SC 02:24:28.60 37,38 02:21:39.50
122 PISCIOTTA VINCENZO M M7 3 SS FRECCE ROSSE RIMINI 02:24:26.30 37,39 02:23:57.57
121 BAIGUINI MATTEO M M3 33 ASD TBR MERIDA BIKES 02:24:24.10 37,40 02:22:55.55
120 TONTINI MARCO M M3 32 ASD GS MONDOBICI 02:24:10.10 37,46 02:24:10.10
119 VIOLA ANTONIO M M1 16 MACCHINA D´ORO 02:23:55.00 37,52 02:22:27.27
118 TIRABASSO ROBERTO M ES 17 ASD POLISPORTIVA BELMONTESE 02:23:53.50 37,53 02:23:05.05
117 ROFFINI ROBERTO M M3 31 ASD D´ASCENZO BIKE 02:23:53.10 37,53 02:22:29.29
116 DE CAROLIS EMILIANO M M3 30 ASD ADRIA & SIBILLA 02:23:50.80 37,54 02:21:00.50
115 SARDELLA CIRO M M4 17 N. LIMITS ASD - STUDIO MODA 02:23:50.70 37,54 02:22:34.20
114 DI FELICE ALFREDO M M6 5 VIBRATA BIKE 2005 02:23:50.40 37,54 02:22:27.27
113 FOLI FABIO M M4 16 LIFE CODE TEAM 02:23:50.10 37,54 02:21:46.46
112 LIVON LUCIANO M M6 4 ASD POLISPORTIVA TRIVIUM 02:23:49.90 37,55 02:23:07.50
111 BASTIANELLI FEDERICO M M3 29 CICLO CLUB VALLONE 02:23:49.00 37,55 02:21:01.01
110 ANTONIONI LUCA M M2 21 5311 SC 02:23:48.70 37,55 02:22:17.70
109 TARSI CRISTIAN M ES 16 VELO CLUB CICLI CINGOLANI ASD 02:23:48.10 37,55 02:23:38.38
108 CAPITINI GIANLUCA M ES 15 GS CICLO CLUB CALCINELLI ASD 02:23:47.80 37,56 02:21:33.00
107 AGOSTINI GIACOMO M M3 28 ASD GS MONDOBICI 02:23:15.60 37,70 02:20:46.10
106 TOPA LEONARDO M M2 20 ASD NEWTEAM ESSEBI 02:22:52.80 37,80 02:21:56.20
105 PIOMBETTI PAOLO M M6 3 ASD GS CHIARAVALLE 02:22:50.40 37,81 02:22:43.00
104 MARONARI MAURO M M4 15 ASD SAURO SIMONCINI 02:22:49.90 37,81 02:22:19.00
103 PASQUARELLA ANDREA M M1 15 RAVEN TEAM 02:22:12.00 37,97 02:22:12.00
102 FABI ALESSANDRO M M2 19 5311 SC 02:21:47.70 38,09 02:18:52.20
101 MINGRONI PIETROPAOLO M M7 2 ASD MARFISH 02:21:47.30 38,09 02:20:57.57
100 PACCHIOLI MASSIMO M M3 27 ASD FUTUR BIKE 02:21:46.40 38,09 02:21:11.11
99 ARIGLIANI ANGELO M M1 14 ASD TEAM KYKLOS ABRUZZO 02:21:45.20 38,10 02:21:02.02
98 SANTILLI MIRCO M M2 18 FALCO RACING 02:21:45.00 38,10 02:19:30.00
97 ASCOLANI CHRISTIAN M M2 17 ASD SBT TEAM 02:21:44.10 38,10 02:19:57.57
96 PIZZAGALLI FABIO M M3 26 5311 SC 02:21:28.00 38,17 02:19:58.58
95 PIACENTI NAUDIO M M7 1 ASD BICIMANIA TERNI 02:21:25.30 38,19 02:19:19.19
94 CORALLINI GIACOMO M ES 14 ASD GIULIODORI RENZO ZEPPA BIKE 02:21:05.60 38,28 02:19:42.50
93 CURTI LUCA M M1 13 ASD PETRITOLI BIKE 02:20:57.00 38,31 02:20:18.18
92 RABINELLI RICCARDO M M4 14 FALCO RACING 02:20:43.20 38,37 02:20:21.21
91 PIERSIGILLI LUCA M M3 25 ASD MISTERBICI FABRIANO 02:20:42.70 38,38 02:19:20.20
90 TAMBURRINI SIMONE M ES 13 ASD GC MELANIA 02:20:42.50 38,38 02:19:04.04
89 CIARONI LUCIANO M M4 13 ASD TEAM LUCRI 02:20:41.60 38,38 02:20:39.39
88 PERLINI MATTEO M M2 16 TEAM FAUSTO COPPI FERMIGNANO 02:20:41.30 38,38 02:19:26.00
87 AGOSTINELLI STEFANO M M3 24 PONTE CYCLING TEAM 02:20:41.20 38,38 02:18:15.15
86 CASSETTA FABRIZIO M M4 12 VELO CLUB GUBBIO 02:20:41.10 38,38 02:18:26.00
85 GIOMMARINI SALVATORE M M4 11 N. LIMITS ASD - STUDIO MODA 02:20:40.90 38,39 02:20:03.10
84 LIPPI MARCO M ES 12 ASD NEWTEAM ESSEBI 02:20:40.70 38,39 02:20:15.15
83 RIA BRUNO M M5 10 ASD GS CHIARAVALLE 02:20:40.30 38,39 02:20:34.10
82 CASTELLI MARCO M M1 12 FALCO RACING 02:20:40.25 38,39 02:20:17.15
81 RAPARI MORENO M M3 23 ASD PETRITOLI BIKE 02:20:40.20 38,39 02:20:01.10
80 CAVION CHRISTIAN M ES 11 GEKO BIKE ASD 02:20:39.90 38,39 02:18:19.80
79 SIGNORETTI FRANCESCO M M1 11 5311 SC 02:20:39.80 38,39 02:17:58.58
78 FINOCCHI UMBERTO M ES 10 FFA CUS SPINNINGS ACADEMY 02:20:39.70 38,39 02:18:01.01
77 GRECO DANIELE M ES 9 ASD NEWTEAM ESSEBI 02:20:39.30 38,39 02:19:28.28
76 TIRONZELLI GABRIELE M M2 15 GSD TEAM SACCARELLI ALPIN 02:20:39.10 38,39 02:17:58.58
75 MENCUCCI CRISTIAN M M2 14 TEAM FAUSTO COPPI FERMIGNANO 02:20:39.05 38,39 02:19:30.05
74 MORRI ALESSANDRO M M3 22 SS FRECCE ROSSE RIMINI 02:20:38.70 38,40 02:17:42.10
73 GIOVAGNINI GIORGIO M M5 9 ASD GIULIODORI RENZO ZEPPA BIKE 02:20:38.50 38,40 02:20:21.21
72 DILETTI ALESSANDRO M M2 13 BICI ADVENTURE TEAM ASD 02:20:38.30 38,40 02:20:38.30
71 PIEROTTI MAURIZIO M M5 8 VELO CLUB GUBBIO 02:20:38.25 38,40 02:18:21.21
70 PETINARI RAOUL M M5 7 NUOVA PEDALE CIVITANOVESE 02:20:38.10 38,40 02:19:46.46
69 BELLUCCI FRANCO M M5 6 ASD SAURO SIMONCINI 02:20:37.90 38,40 02:18:54.90
68 LUCERTONI DAVID M ES 8 GS AVIS BIKE CINGOLI 02:20:37.30 38,40 02:20:37.30
67 SCHIAROLI ALESSANDRO M M2 12 VELO CLUB CICLI CINGOLANI ASD 02:20:25.40 38,46 02:20:16.10
66 CINTI ALESSANDRO M M2 11 COMAF TIRALENTO 02:20:22.50 38,47 02:20:22.50
65 CAMILLETTI VANNI M M4 10 EASY BIKE CASTELNUOVO 02:20:13.30 38,51 02:19:55.00
64 DI FELICIANTONIO NICOLA M M3 21 ASD D´ASCENZO BIKE 02:20:09.80 38,53 02:19:58.10
63 FILIPPI FEDERICO M M5 5 PONTE CYCLING TEAM 02:20:09.10 38,53 02:19:59.00
62 MARSAN MAURO M M4 9 INDIVIDUALE 02:20:08.60 38,53 02:20:05.10
61 BINCI MARCELLO M M5 4 ASD NEWTEAM ESSEBI 02:20:07.70 38,54 02:18:54.40
60 BERTOZZI MARCO M M1 10 TEAM FAUSTO COPPI FERMIGNANO 02:19:34.30 38,69 02:18:26.20
59 MENGHINI DAVIDE M M2 10 ASD VALENTI TEAM 02:18:18.30 39,05 02:18:18.30
58 VALENTINI FABRIZIO M M3 20 GS CICLI OLIVIERI 02:18:18.20 39,05 02:17:58.58
57 BALDONI ROBERTO M M3 19 PONTE CYCLING TEAM 02:18:17.70 39,05 02:17:25.70
56 BELLUCCI ANDREA M M3 18 VELO CLUB GUBBIO 02:18:16.70 39,05 02:17:04.04
55 CRINO´ ALESSANDRO M M3 17 ASD NEWTEAM ESSEBI 02:18:15.60 39,06 02:17:25.20
54 ASNICAR MARCO M M1 9 ASD TEAM FONDRIEST 02:18:14.60 39,06 02:18:10.30
53 MONGUZZI MANUEL M M3 16 SS FRECCE ROSSE RIMINI 02:18:12.80 39,07 02:17:33.10
52 ROTATORI GIOVANNI M M2 9 ASD PEDALE FERMANO 02:17:36.80 39,24 02:16:47.30
51 MAZZOLI MARCELLO M M1 8 SS FRECCE ROSSE RIMINI 02:17:21.00 39,32 02:16:53.53
50 GUALANO MATTEO M M2 8 ASD PETRITOLI BIKE 02:17:10.00 39,37 02:17:10.00
49 CALCINARI MORENO M M3 15 N. LIMITS ASD - STUDIO MODA 02:16:40.40 39,51 02:15:51.51
48 CIALINI GINO M M3 14 N. LIMITS ASD - STUDIO MODA 02:16:38.60 39,52 02:14:46.30
47 GIANCARLI FRANCESCO M M6 2 SCD FANESE 02:16:36.80 39,53 02:15:31.30
46 CASTELLUCCI ROCCO M M3 13 ASD GC MELANIA 02:16:34.70 39,54 02:15:18.30
45 PARISSI DOMENICO M M1 7 ASD PETRITOLI BIKE 02:16:31.90 39,56 02:15:50.80
44 MARCHETTI MASSIMO M M4 8 ASD RAGAMON CYCLYNG TEAM 02:16:29.40 39,57 02:16:10.20
43 FELICI GIANLUCA M M3 12 FALCO RACING 02:16:26.60 39,58 02:16:07.50
42 NARDELLI GIANCARLO M M4 7 VELO CLUB GUBBIO 02:16:23.90 39,59 02:15:15.80
41 BARTOCCI MAURO M M4 6 ASD GIULIODORI RENZO ZEPPA BIKE 02:16:21.10 39,60 02:15:41.41
40 PAZZAGLIA WALTER M M4 5 ASD CICLI COPPARO 02:16:20.80 39,61 02:16:19.70
39 COLANGELO GIAMPIERO CARMINE M M1 6 ASD NEW LIMITS - STUDIO MODA 02:16:19.60 39,61 02:15:48.50
38 GIULIODORI GIACOMO M M2 7 ASD GIULIODORI RENZO ZEPPA BIKE 02:16:19.40 39,61 02:14:49.30
37 LANCIOTTI ROBERTO M ES 7 SCA OFFIDA 02:16:18.80 39,62 02:14:58.00
36 PIERINI ETTORE M M3 11 ASD FD STEEL 02:16:17.60 39,62 02:15:33.33
35 SAVINI MATTEO M M2 6 TEAM PASSION FAENTINA 02:16:16.20 39,63 02:15:44.44
34 AMADORI NICOLA M ES 6 5311 SC 02:16:15.10 39,63 02:13:24.24
33 DIONISI SANDRO M M6 1 NUOVA PEDALE CIVITANOVESE 02:16:14.90 39,64 02:15:09.90
32 MASTROVINCENZO HELENIO M M3 10 ASD NEWTEAM ESSEBI 02:16:13.90 39,64 02:15:31.20
31 LATTANZI GIOVANNI M M5 3 N. LIMITS ASD - STUDIO MODA 02:16:12.00 39,65 02:15:23.23
30 CICCONOFRI PAOLO M M3 9 FALCO RACING 02:16:11.80 39,65 02:15:48.50
29 PIERONI MAURO M M4 4 ASD GIULIODORI RENZO ZEPPA BIKE 02:16:11.60 39,65 02:15:35.50
28 GAMBADORI LUCIANO M M4 3 ASD NEWTEAM ESSEBI 02:16:11.30 39,65 02:16:01.01
27 BATTELLI DANIELE M M3 8 TEAM FAUSTO COPPI FERMIGNANO 02:16:10.90 39,66 02:15:00.80
26 MAZZOLI PAOLO M M5 2 ASD GIANLUCA FAENZA TEAM 02:16:10.70 39,66 02:15:30.30
25 SENESI SANDRO M M3 7 ASD NEWTEAM ESSEBI 02:16:10.30 39,66 02:14:56.56
24 GIAMPIERI SAURO M M3 6 ASD FD STEEL 02:16:10.00 39,66 02:15:13.13
23 MORBIDONI DANIELE M M3 5 ASD GS CHIARAVALLE 02:16:09.50 39,66 02:16:02.02
22 PETRUCCI DINO M M3 4 ASD GS CHIARAVALLE 02:16:09.40 39,66 02:16:04.04
21 TOMASSETTI FABIO M M1 5 N. LIMITS ASD - STUDIO MODA 02:16:09.30 39,66 02:15:36.36
20 CECCAROSSI ANDREA M M2 5 ASD TEAM KYKLOS ABRUZZO 02:16:09.25 39,66 02:15:02.02
19 BALDUCCI DANIELE M M2 4 ASD SAURO SIMONCINI 02:16:09.10 39,66 02:15:38.38
18 CELANI EMIDIO M M2 3 ASD GC MELANIA 02:16:09.00 39,66 02:14:50.50
17 ROSARIO VINICIO M M4 2 N. LIMITS ASD - STUDIO MODA 02:16:08.80 39,67 02:15:16.30
16 FIORETTI MIRKO M ES 5 ASD GIULIODORI RENZO ZEPPA BIKE 02:16:08.70 39,67 02:16:08.10
15 DI DOMENICO MARINO M M5 1 ASD TORTORETO BIKE 02:16:08.60 39,67 02:15:41.60
14 MANGIALARDO LORENZO M M3 3 ASD GIULIODORI RENZO ZEPPA BIKE 02:16:08.55 39,67 02:15:37.37
13 VALLESE ROBERTO M M3 2 GC PEDALE FERMANO AMATORI ASD 02:16:08.30 39,67 02:15:32.32
12 FURLANI DAVIDE M M4 1 ASD CICLI COPPARO 02:16:08.20 39,67 02:16:04.04
11 GHIANDONI LUCA M ES 4 TEAM FAUSTO COPPI FERMIGNANO 02:16:08.00 39,67 02:14:57.00
10 BASTIANELLI MARIO M M3 1 N. LIMITS ASD - STUDIO MODA 02:16:07.00 39,67 02:15:18.18
9 VAGNARELLI SAMOCA M ES 3 ASD PETRITOLI BIKE 02:16:05.00 39,68 02:15:30.00
8 FRATERNALI MATTIA M ES 2 TEAM FAUSTO COPPI FERMIGNANO 02:16:01.30 39,70 02:15:45.45
7 DI PIETRO AURELIO M M1 4 ASD TEAM KYKLOS ABRUZZO 02:15:50.50 39,75 02:15:03.03
6 TONUCCI DAVIDE M M2 2 5311 SC 02:15:50.00 39,75 02:12:58.58
5 CONTOLI FILIBERTO M M1 3 TEAM PASSION FAENTINA 02:15:41.20 39,80 02:14:15.00
4 ALESSIANI EMANUELE M M2 1 ASD PETRITOLI BIKE 02:15:18.20 39,91 02:14:37.37
3 FOCHESATO MARCO M M1 2 ASD CALCESTRUZZI MASCOTTO 02:15:18.10 39,91 02:14:16.00
2 PIERSIMONI CLAUDIO M M1 1 ASD CICLI COPPARO 02:15:17.90 39,92 02:15:17.90
1 BORGESE STEFANO M ES 1 ASD TEAM KYKLOS ABRUZZO 02:15:17.20 39,92 02:14:37.20
411 PANCOTTO AURELIANO M M6 31 ACD MICHELE GISMONDI 02:51:20.40 31,52 02:49:45.45
412 CESTARI CARLO M M6 32 ASD TEAM BATTISTELLI AMELIA 02:51:29.20 31,49 02:49:02.02
413 AQUILONE PAOLO M M4 70 ASD CICLISMO E SOLIDARIETA´ LEGA DEL FILO D´ORO 02:51:30.50 31,49 02:50:02.40
414 TRAPANANTI FABRIZIO M M5 46 ASD POLISPORTIVA BELMONTESE 02:51:31.05 31,48 02:49:34.34
415 FINUCCI MASSIMO M M5 47 ASD POLISPORTIVA BELMONTESE 02:51:31.10 31,48 02:49:37.00
416 BRANCHESI LUCA M ES 34 GS AVIS BIKE CINGOLI 02:52:39.50 31,28 02:49:06.30
417 SCAPPINI MARCO M M5 48 ASD VC SANTA MARIA DEGLI ANGELI 02:52:59.90 31,22 02:49:39.60
418 GERMONI FABRIZIO M M3 98 ASD RUOTA LIBERA MOIE 02:53:05.30 31,20 02:49:41.41
419 POZZI OSCAR M M5 49 GS CICLO CLUB CALCINELLI ASD 02:53:05.40 31,20 02:50:48.48
420 NATALUCCI GIAMPAOLO M M6 33 ASD GS CHIARAVALLE 02:53:14.50 31,17 02:53:07.00
421 SILVESTRO TANCREDI M M4 71 ASD ALBA BIKE TEAM 02:53:23.60 31,14 02:49:47.10
422 SALARI DOMENICO M M6 34 ASD MISTERBICI FABRIANO 02:53:25.50 31,14 02:49:57.30
423 SCARPONI DIONISIO M M7 7 ASD VALENTI TEAM 02:53:25.60 31,14 02:50:16.00
424 GALLI ELISABETTA F W1 6 5311 SC 02:53:38.40 31,10 02:52:37.37
425 ROMANI ANDREA M M3 99 5311 SC 02:53:38.70 31,10 02:52:06.06
426 DALLA NOCE MARCO M M4 72 ASD BORN TO RUN 02:54:35.70 30,93 02:53:15.30
427 CORVATTA DEMIS M ES 35 NUOVA PEDALE CIVITANOVESE 02:54:35.90 30,93 02:52:43.80
428 BUONGARZONE ANTONIO M M4 73 NUOVA PEDALE CIVITANOVESE 02:54:38.50 30,92 02:53:18.30
429 SCHIRALLI DOMENICO M M5 50 ASD SMIRRA BIKE 02:54:44.60 30,90 02:52:02.30
430 MICARONE PASQUALE M M6 35 ASD GS CICLOMANIA 2007 02:54:45.10 30,90 02:50:59.59
431 GUASTELLA FILIPPO M M1 50 ASD SEVERI BIKES 02:55:06.10 30,84 02:51:21.21
432 FIORINI FABIO M M4 74 ASD MONTE CONERO BIKE 02:55:10.60 30,83 02:51:47.30
433 ISIDORI LORIS M NC 4 ASD MONTE CONERO BIKE 02:55:32.30 30,76 02:51:57.30
434 MAROZZI FERNANDO M M8 4 GC PEDALE FERMANO AMATORI ASD 02:55:36.00 30,75 02:53:41.41
435 SCOCCIA ANDREA M M2 61 ASD NEW LIMITS 02:55:46.10 30,72 02:52:41.41
436 PETRELLI DARIO M M5 51 ASD NA´ PEDALATA NA´ MAGNATA 02:55:50.50 30,71 02:52:11.11
437 GIANANGELI MARCO M M5 52 ASD NEWTEAM ESSEBI 02:55:53.30 30,70 02:54:39.20
438 PIERUCCI DANIELE M M2 62 GS AVIS BIKE CINGOLI 02:55:57.30 30,69 02:53:01.01
439 SECCHI ANTONIO M M6 36 ASD PEDALE AGUGLIANESE 02:56:00.30 30,68 02:53:15.20
440 TULLI PIETRO M M4 75 ALESSI POL APPIGNANO DEL TRONTO 02:56:04.80 30,67 02:53:03.60
441 CORSALINI FRANCESCO M M1 51 ASD STELLA BIKE 02:56:28.30 30,60 02:54:25.00
442 MARIANI CARLO M M3 100 RAMPI CLUB BRIANZA 02:56:30.80 30,59 02:53:36.00
443 ROMUALDI FRANCESCO M M5 53 ASD RE ARTU´ 02:56:39.50 30,57 02:54:08.08
444 CARE´ DOMENICANTONIO M M5 54 ASD MISTERBICI FABRIANO 02:57:23.50 30,44 02:55:50.50
445 ISIDORI ROBERTO M M4 76 ASD MONTE CONERO BIKE 02:57:35.90 30,41 02:54:01.00
446 ORANI PASQUALE M M4 77 ASD MONTE CONERO BIKE 02:57:36.10 30,41 02:54:05.10
447 SANTINELLI GIANPIERO M M4 78 ASD GIULIODORI RENZO ZEPPA BIKE 02:58:01.00 30,33 02:58:01.00
448 SPINELLI GIUSEPPE M M1 52 ASD GC MELANIA 02:58:23.30 30,27 02:56:37.37
449 LAMBERTUCCI MASSIMO M M5 55 ASD FUTUR BIKE 02:58:25.10 30,27 02:56:48.48
450 CANNONI SALVATORE M M6 37 ASD VC SANTA MARIA DEGLI ANGELI 02:58:41.10 30,22 02:55:58.58
451 MASSACCI CLAUDIO M M5 56 CICLO CLUB VALLONE 02:58:45.20 30,21 02:55:33.20
452 PIGNOCCHI DAVIDE M M4 79 ASD PEDALE AGUGLIANESE 02:58:54.00 30,18 02:56:28.00
453 CEOLIN ANGELO M M2 63 ASD CICLI MORBIATO 02:59:10.30 30,14 02:57:03.20
454 SPERANDEI MANOLO M M3 101 ASD TEAM BATTISTELLI AMELIA 02:59:11.20 30,14 02:56:43.43
455 GALLI LAURA F W2 11 ASD GS MONDOBICI 02:59:39.80 30,06 02:58:34.40
456 MAGRINI MICHELE M NC 5 ASD CICLO 2001 02:59:56.60 30,01 02:56:30.60
457 TEMPERINI ENRICO M M7 8 GS AVIS PEDALE SANGIUSTESE 03:00:06.10 29,98 02:58:12.10
458 MAGRINI MAURO M M4 80 ASD CICLO 2001 03:00:08.10 29,98 02:56:41.41
459 CARESTIA ANDREA ALESSANDRO M M2 64 NUOVA PEDALE CIVITANOVESE 03:00:24.80 29,93 02:58:20.00
460 PALAZZI MONIA F W1 7 ASD CICLI COPPARO 03:00:30.20 29,92 03:00:29.29
461 DE FLAVIIS CLAUDIO M M2 65 SCA OFFIDA 03:00:31.90 29,91 02:57:29.10
462 CHIUSAROLI GIORDANO M M3 102 ASD RAGAMON CYCLING TEAM 03:00:37.50 29,90 02:59:47.50
463 ROSAVERDE RODOLFO M M5 57 ASD TEAM GALIARDI 03:00:46.30 29,87 02:57:15.15
464 REGINI MASSIMO M M3 103 GS CICLO CLUB CALCINELLI ASD 03:01:15.60 29,79 02:59:03.00
465 MEME´ MIRCO M M2 66 FREE BIKERS SENIGALLIA ASD 03:02:30.60 29,59 02:58:41.20
466 TRIFONE ARTURO M M1 53 ASD SOLO NOI 03:02:32.20 29,58 02:59:04.04
467 PAVONI RUGGERO M M5 58 GC SETTECOLLI ASD FILOTTRANO 03:02:37.50 29,57 03:00:12.12
468 CURSI TATIANA F W1 8 ASD GIULIODORI RENZO ZEPPA BIKE 03:02:42.50 29,56 03:01:40.10
469 FAGGI FRANCESCO M M1 54 ASD GIULIODORI RENZO ZEPPA BIKE 03:02:43.00 29,55 02:59:57.00
470 STACCHIOTTI MARIO M M7 9 ASD CICLO CLUB RECANATI 1988 03:02:58.70 29,51 03:00:51.10
471 BERCHIESI ALFREDO M M1 55 ASD CICLO CLUB RECANATI 1988 03:02:59.20 29,51 03:00:53.53
472 ODDI ROMANO M M8 5 ASD MARY CONFEZIONI 03:03:02.40 29,50 03:01:34.34
473 AGHITO FABRIZIO M M8 6 ASD TURBOLENTO 03:03:05.40 29,49 03:03:05.40
474 BARBIERI VALERIO M M4 81 ASD GS MONDOBICI 03:03:28.80 29,43 03:00:57.20
475 RIPANTI ROLANDO M M5 59 VELO CLUB CICLI CINGOLANI ASD 03:03:59.30 29,35 03:02:11.10
476 MAZZUCCHELLI MARCO PIER M M3 104 ROAD RUNNERS CLUB 03:04:08.20 29,33 03:03:54.54
477 FIORAVANTI TITO M M1 56 ALESSI POL APPIGNANO DEL TRONTO 03:04:20.10 29,29 03:01:22.22
478 VESPRINI ANDREA M ES 36 ASD FERMO BIKE 03:04:20.70 29,29 03:02:26.26
479 CAPANNELLI ROBERTO M M1 57 ASD CICLI FALGIANI 03:04:30.60 29,27 03:01:43.30
480 SIGNORETTI MARCO M M2 67 SCD FANESE 03:05:04.10 29,18 03:02:08.08
481 GIRALDI STEFANO M M2 68 CONERO FREE BIKE 03:05:17.70 29,14 03:02:04.04
482 MACCHIAVELLI MAURO M M4 82 FFA CUS SPINNINGS ACADEMY 03:05:18.30 29,14 03:01:38.38
483 ROSSI MARCO M M1 58 ASD BORN TO RUN 03:05:23.60 29,13 03:04:02.30
484 PACIFICI FABIO M M1 59 ASD VC SANTA MARIA DEGLI ANGELI 03:05:53.20 29,05 03:02:07.07
485 GRASSO ANDREA M M4 83 INDIVIDUALE 03:06:06.60 29,02 03:06:06.60
486 BRACCIALARGHE MARIO M M6 38 CLUB PEDALE FINPROJECT 03:06:06.80 29,02 03:03:41.70
487 FILIPPINI PIERINO M M7 10 GS CICLI OLIVIERI 03:06:34.10 28,94 03:04:12.00
488 VANNICOLA VALERIO M M3 105 ASD ALL4CYCLING-BDC-FORUM TEAM 03:06:57.70 28,88 03:03:46.46
489 D´ANNUNZIO OTTAVIO M M4 84 ASD D´ASCENZO BIKE 03:07:00.00 28,88 03:05:29.29
490 FRANCOLINI FEDERICO M ES 37 SCD FANESE 03:07:07.90 28,86 03:04:07.30
491 GENOVESE MARCO M M3 106 ASD SIBILLINI 03:07:54.00 28,74 03:05:43.43
492 DORIA MASSIMO M M5 60 CLUB PEDALE FINPROJECT 03:08:06.80 28,71 03:06:04.00
493 SARTINI GIANFRANCO M M7 11 SCD FANESE 03:08:21.50 28,67 03:06:42.50
494 SERAFINI MICHELE M M3 107 SCD FANESE 03:08:22.80 28,67 03:06:40.80
495 EMANUELLI MASSIMO M M6 39 SCD FANESE 03:08:24.40 28,66 03:05:25.25
496 PANDOLFI FILIPPO M M3 108 SCD FANESE 03:08:25.50 28,66 03:06:39.30
497 BIONDI GIANLUCA M M3 109 ASD PEDALE AGUGLIANESE 03:08:29.50 28,65 03:05:45.45
498 BELLUCCI MONICA F W2 12 GS SPORTISSIMO 03:08:31.30 28,64 03:05:10.10
499 ALBORI STEFANO M M5 61 GS SPORTISSIMO 03:08:32.20 28,64 03:05:13.13
500 FULVI EDGARDO M M7 12 GS CICLO CLUB CALCINELLI ASD 03:08:48.60 28,60 03:06:30.30
501 PENNESI LUCA M ES 38 AVIS FRECCE AZZURRE 03:09:03.30 28,56 03:05:59.00
502 RINALDI MANUELA F EW 1 TEAM FAUSTO COPPI FERMIGNANO 03:09:25.80 28,51 03:09:07.20
503 DI MUZIO ALESSIO M M5 62 ASD GS CICLOMANIA 2007 03:09:54.30 28,44 03:06:19.19
504 CIUCCI STEFANO M ES 39 ASD STELLA BIKE 03:10:18.80 28,38 03:08:14.30
505 CICCIOLI MASSIMO M M2 69 ASD STELLA BIKE 03:10:19.10 28,37 03:08:14.14
506 AMADORI MONIA M M3 110 AS LA TORRE BATMANIA 03:10:44.20 28,31 03:07:40.00
507 ALPINI RICCARDO M M2 70 AS LA TORRE BATMANIA 03:10:44.80 28,31 03:07:42.40
508 PANZIERI PAOLO M M6 40 SCD FANESE 03:11:07.70 28,25 03:09:27.70
509 CIPRIANI ALBERTO M M6 41 ASD CICLO 2001 03:11:07.80 28,25 03:07:42.80
510 CESETTI ROSSANO M M4 85 CLUB PEDALE FINPROJECT 03:11:08.10 28,25 03:08:41.10
511 MAURIZI GIOVANNI M M6 42 CLUB PEDALE FINPROJECT 03:12:27.10 28,06 03:10:30.30
512 BALLESTRIERI TIZIANA F W2 13 ROYAL TEAM ASD 03:12:36.20 28,04 03:12:05.05
513 MICHELI ANDREA M M2 71 FALCO RACING 03:12:47.30 28,01 03:12:47.30
514 DE ANGELIS MASSIMO M M1 60 NUOVA PEDALE CIVITANOVESE 03:13:22.30 27,93 03:12:07.07
515 PASQUINELLI ENNIO M M6 43 ASD SPORT DLF ANCONA 03:13:42.70 27,88 03:11:34.40
516 VELTRI ROCCO M M8 7 ADS VELOCLUB TEMESA 03:13:50.50 27,86 03:10:14.14
517 PIERFRANCESCHI ANACLETO M M4 86 ASD SMIRRA BIKE 03:14:07.70 27,82 03:11:25.10
518 PIETRELLI MICHELE M M4 87 SCD FANESE 03:14:11.90 27,81 03:12:34.90
519 GRANDI GIORGIO M M7 13 SCD FANESE 03:14:12.50 27,81 03:12:30.30
520 LIVI EMANUELE M M1 61 SCD FANESE 03:14:12.70 27,81 03:11:19.40
521 BEDINI ROBERTO M M5 63 ASD PEDALE AGUGLIANESE 03:16:08.70 27,53 03:12:33.10
522 PAOLONI GABRIELE M M4 88 TEAM GRANZON 03:16:08.80 27,53 03:12:25.20
523 CALCAGNINI ROBERTO M M5 64 GS CICLO CLUB CALCINELLI ASD 03:17:03.50 27,40 03:14:11.00
524 PASQUINELLI LEONARDO M ES 40 ASD SPORT DLF ANCONA 03:18:13.20 27,24 03:17:01.01
525 SERENO CRISTIAN M M3 111 ASD WIND BIKE 03:18:32.50 27,20 03:15:01.01
526 CANCELLIERI ESTERINA F W2 14 ASD PANTERE ROSA BY VILLA FASTIGGI BIKE 03:18:37.70 27,19 03:18:05.30
527 TORRESI GIANCARLO M M5 65 NUOVA PEDALE CIVITANOVESE 03:18:38.70 27,19 03:17:19.30
528 FALCIONI PAOLO M M4 89 ASD AC E PETRUIO 03:21:32.40 26,79 03:18:30.10
529 MAMMITZSCH MORETTI ANGIOLA F W2 15 PEDALE CESENATE CICLI NERI 03:22:28.50 26,67 03:22:28.50
530 RICCI SILVIO M M6 44 ASD POLISPORTIVA BELMONTESE 03:25:09.50 26,32 03:23:20.20
531 PENNACCHIETTI ROBERTO M M6 45 ASD FUTUR BIKE 03:25:09.90 26,32 03:22:10.50
532 CESARI PIERLUIGI M M5 66 ASD POLISPORTIVA BELMONTESE 03:25:10.40 26,32 03:23:16.16
533 LUCIANI LUIGI M M5 67 PLANET FITNESS BIKE ASD 03:25:10.80 26,32 03:21:49.60
534 TRONELLI MAURIZIO M M5 68 ASD POLISPORTIVA BELMONTESE 03:25:11.10 26,32 03:23:20.20
535 CAPPANNARI GIUSEPPE M M5 69 ASD POLISPORTIVA BELMONTESE 03:25:18.00 26,30 03:23:26.26
536 LUCERTINI MARCO M M5 70 SCD FANESE 03:26:54.20 26,10 03:23:56.56
537 BONIFAZI SANTE M M7 14 AVIS FRECCE AZZURRE 03:26:59.90 26,09 03:25:00.10
538 PASSARINI STEFANO M M5 71 AVIS FRECCE AZZURRE 03:27:05.20 26,08 03:25:07.07
539 DI FEO ANNA MARIA F W2 16 NUOVA PEDALE CIVITANOVESE 03:27:09.70 26,07 03:24:02.30
540 CARDINALI MARCELLO M M5 72 NUOVA PEDALE CIVITANOVESE 03:27:12.30 26,06 03:24:04.04
541 FABBRI GABRIELLA F W2 17 PEDALE CESENATE CICLI NERI 03:27:52.00 25,98 03:26:39.39
542 PECORALE ORAZIO M M5 73 FFA CUS SPINNINGS ACADEMY 03:28:03.30 25,96 03:24:24.24
543 BENTIVOGLIO GIUSEPPE M M6 46 NUOVA PEDALE CIVITANOVESE 03:32:01.60 25,47 03:30:17.17
544 CORINALDESI FRANCESCO M M3 112 ASD RAGAMON CYCLING TEAM 03:35:13.30 25,09 03:32:30.30
545 TOMASSINI STEFANI